<?xml version="1.0" encoding="UTF-8"?><gpx xmlns="http://www.topografix.com/GPX/1/1"  creator="TraceDeTrail http://www.tracedetrail.fr" version="1.1" xmlns:xsi="http://www.w3.org/2001/XMLSchema-instance" xsi:schemaLocation="http://www.topografix.com/GPX/1/1 http://www.topografix.com/GPX/1/1/gpx.xsd "><metadata><name>Le 3 du Var  Parcours du BIGOR  15 Km</name><link href="http://tracedetrail.fr/fr/trace/trace/211044"><text>methode de calcul : astergdem </text></link></metadata><trk><name>Le 3 du Var  Parcours du BIGOR  15 Km sur TraceDeTrail.fr</name><trkseg><trkpt lat="43.73128" lon="6.62032"><ele>970</ele><time>2000-01-01T00:48:21.000Z</time></trkpt><trkpt lat="43.73121" lon="6.62044"><time>2000-01-01T00:48:31.000Z</time></trkpt><trkpt lat="43.73117" lon="6.62052"><time>2000-01-01T00:48:41.000Z</time></trkpt><trkpt lat="43.73123" lon="6.62071"><ele>967</ele><time>2000-01-01T00:48:51.000Z</time></trkpt><trkpt lat="43.73122" lon="6.62083"><time>2000-01-01T00:49:01.000Z</time></trkpt><trkpt lat="43.73116" lon="6.62102"><ele>963</ele><time>2000-01-01T00:49:11.000Z</time></trkpt><trkpt lat="43.7311" lon="6.62116"><time>2000-01-01T00:49:21.000Z</time></trkpt><trkpt lat="43.73105" lon="6.62126"><ele>963</ele><time>2000-01-01T00:49:31.000Z</time></trkpt><trkpt lat="43.73143" lon="6.62162"><ele>962</ele><time>2000-01-01T00:49:41.000Z</time></trkpt><trkpt lat="43.73159" lon="6.62176"><time>2000-01-01T00:49:51.000Z</time></trkpt><trkpt lat="43.73173" lon="6.62187"><ele>963</ele><time>2000-01-01T00:50:01.000Z</time></trkpt><trkpt lat="43.73218" lon="6.62207"><ele>962</ele><time>2000-01-01T00:50:11.000Z</time></trkpt><trkpt lat="43.73242" lon="6.62213"><ele>962</ele><time>2000-01-01T00:50:21.000Z</time></trkpt><trkpt lat="43.73268" lon="6.6222"><ele>962</ele><time>2000-01-01T00:50:31.000Z</time></trkpt><trkpt lat="43.73315" lon="6.62234"><ele>954</ele><time>2000-01-01T00:50:41.000Z</time></trkpt><trkpt lat="43.73363" lon="6.62249"><ele>957</ele><time>2000-01-01T00:50:51.000Z</time></trkpt><trkpt lat="43.73387" lon="6.6226"><ele>960</ele><time>2000-01-01T00:51:01.000Z</time></trkpt><trkpt lat="43.7342" lon="6.62282"><ele>965</ele><time>2000-01-01T00:51:11.000Z</time></trkpt><trkpt lat="43.73452" lon="6.62304"><ele>970</ele><time>2000-01-01T00:51:21.000Z</time></trkpt><trkpt lat="43.7347" lon="6.6232"><ele>974</ele><time>2000-01-01T00:51:31.000Z</time></trkpt><trkpt lat="43.73489" lon="6.62346"><ele>974</ele><time>2000-01-01T00:51:41.000Z</time></trkpt><trkpt lat="43.7351" lon="6.62375"><ele>974</ele><time>2000-01-01T00:51:51.000Z</time></trkpt><trkpt lat="43.73525" lon="6.62401"><ele>977</ele><time>2000-01-01T00:52:01.000Z</time></trkpt><trkpt lat="43.73536" lon="6.62421"><time>2000-01-01T00:52:11.000Z</time></trkpt><trkpt lat="43.73544" lon="6.6244"><ele>979</ele><time>2000-01-01T00:52:21.000Z</time></trkpt><trkpt lat="43.73549" lon="6.62458"><time>2000-01-01T00:52:31.000Z</time></trkpt><trkpt lat="43.73557" lon="6.62461"><ele>977</ele><time>2000-01-01T00:52:41.000Z</time></trkpt><trkpt lat="43.73566" lon="6.62474"><time>2000-01-01T00:52:51.000Z</time></trkpt><trkpt lat="43.73587" lon="6.62511"><ele>975</ele><time>2000-01-01T00:53:01.000Z</time></trkpt><trkpt lat="43.73602" lon="6.62517"><time>2000-01-01T00:53:11.000Z</time></trkpt><trkpt lat="43.7362" lon="6.62513"><ele>970</ele><time>2000-01-01T00:53:21.000Z</time></trkpt><trkpt lat="43.73658" lon="6.62515"><ele>970</ele><time>2000-01-01T00:53:31.000Z</time></trkpt><trkpt lat="43.73667" lon="6.6252"><time>2000-01-01T00:53:41.000Z</time></trkpt><trkpt lat="43.73679" lon="6.62524"><ele>970</ele><time>2000-01-01T00:53:51.000Z</time></trkpt><trkpt lat="43.73711" lon="6.62546"><ele>974</ele><time>2000-01-01T00:54:01.000Z</time></trkpt><trkpt lat="43.73753" lon="6.62568"><ele>974</ele><time>2000-01-01T00:54:11.000Z</time></trkpt><trkpt lat="43.7379" lon="6.62588"><ele>974</ele><time>2000-01-01T00:54:21.000Z</time></trkpt><trkpt lat="43.73825" lon="6.62609"><ele>974</ele><time>2000-01-01T00:54:31.000Z</time></trkpt><trkpt lat="43.73858" lon="6.62627"><ele>975</ele><time>2000-01-01T00:54:41.000Z</time></trkpt><trkpt lat="43.73873" lon="6.62634"><time>2000-01-01T00:54:51.000Z</time></trkpt><trkpt lat="43.73887" lon="6.62639"><ele>976</ele><time>2000-01-01T00:55:01.000Z</time></trkpt><trkpt lat="43.73924" lon="6.62645"><ele>979</ele><time>2000-01-01T00:55:11.000Z</time></trkpt><trkpt lat="43.73951" lon="6.62647"><ele>980</ele><time>2000-01-01T00:55:21.000Z</time></trkpt><trkpt lat="43.73981" lon="6.62649"><ele>979</ele><time>2000-01-01T00:55:31.000Z</time></trkpt><trkpt lat="43.74008" lon="6.62651"><ele>978</ele><time>2000-01-01T00:55:41.000Z</time></trkpt><trkpt lat="43.7404" lon="6.62653"><ele>978</ele><time>2000-01-01T00:55:51.000Z</time></trkpt><trkpt lat="43.74073" lon="6.62656"><ele>983</ele><time>2000-01-01T00:56:01.000Z</time></trkpt><trkpt lat="43.741" lon="6.62659"><ele>983</ele><time>2000-01-01T00:56:11.000Z</time></trkpt><trkpt lat="43.74137" lon="6.62662"><ele>983</ele><time>2000-01-01T00:56:21.000Z</time></trkpt><trkpt lat="43.74168" lon="6.62665"><ele>981</ele><time>2000-01-01T00:56:31.000Z</time></trkpt><trkpt lat="43.74193" lon="6.62668"><ele>981</ele><time>2000-01-01T00:56:41.000Z</time></trkpt><trkpt lat="43.74219" lon="6.62671"><ele>982</ele><time>2000-01-01T00:56:51.000Z</time></trkpt><trkpt lat="43.74244" lon="6.62673"><ele>985</ele><time>2000-01-01T00:57:01.000Z</time></trkpt><trkpt lat="43.74269" lon="6.62676"><ele>985</ele><time>2000-01-01T00:57:11.000Z</time></trkpt><trkpt lat="43.74295" lon="6.62678"><ele>992</ele><time>2000-01-01T00:57:21.000Z</time></trkpt><trkpt lat="43.74324" lon="6.62681"><ele>999</ele><time>2000-01-01T00:57:31.000Z</time></trkpt><trkpt lat="43.74371" lon="6.62686"><ele>1005</ele><time>2000-01-01T00:57:41.000Z</time></trkpt><trkpt lat="43.7441" lon="6.627"><ele>1009</ele><time>2000-01-01T00:57:51.000Z</time></trkpt><trkpt lat="43.74423" lon="6.62705"><time>2000-01-01T00:58:01.000Z</time></trkpt><trkpt lat="43.74462" lon="6.62731"><ele>1011</ele><time>2000-01-01T00:58:11.000Z</time></trkpt><trkpt lat="43.74479" lon="6.62745"><ele>1011</ele><time>2000-01-01T00:58:21.000Z</time></trkpt><trkpt lat="43.74493" lon="6.62759"><time>2000-01-01T00:58:31.000Z</time></trkpt><trkpt lat="43.74506" lon="6.62781"><ele>1013</ele><time>2000-01-01T00:58:41.000Z</time></trkpt><trkpt lat="43.74519" lon="6.62786"><time>2000-01-01T00:58:51.000Z</time></trkpt><trkpt lat="43.74553" lon="6.62789"><ele>1013</ele><time>2000-01-01T00:59:01.000Z</time></trkpt><trkpt lat="43.74586" lon="6.62798"><ele>1014</ele><time>2000-01-01T00:59:11.000Z</time></trkpt><trkpt lat="43.74594" lon="6.62798"><time>2000-01-01T00:59:21.000Z</time></trkpt><trkpt lat="43.74599" lon="6.62797"><time>2000-01-01T00:59:31.000Z</time></trkpt><trkpt lat="43.74607" lon="6.62797"><ele>1022</ele><time>2000-01-01T00:59:41.000Z</time></trkpt><trkpt lat="43.74614" lon="6.62801"><time>2000-01-01T00:59:51.000Z</time></trkpt><trkpt lat="43.74621" lon="6.62805"><time>2000-01-01T01:00:01.000Z</time></trkpt><trkpt lat="43.7463" lon="6.62808"><ele>1024</ele><time>2000-01-01T01:00:11.000Z</time></trkpt><trkpt lat="43.74638" lon="6.62811"><time>2000-01-01T01:00:21.000Z</time></trkpt><trkpt lat="43.74645" lon="6.62811"><time>2000-01-01T01:00:31.000Z</time></trkpt><trkpt lat="43.74648" lon="6.6281"><time>2000-01-01T01:00:41.000Z</time></trkpt><trkpt lat="43.74658" lon="6.62804"><ele>1026</ele><time>2000-01-01T01:00:51.000Z</time></trkpt><trkpt lat="43.74675" lon="6.62793"><time>2000-01-01T01:01:01.000Z</time></trkpt><trkpt lat="43.74681" lon="6.62789"><ele>1027</ele><time>2000-01-01T01:01:11.000Z</time></trkpt><trkpt lat="43.7469" lon="6.62783"><time>2000-01-01T01:01:21.000Z</time></trkpt><trkpt lat="43.74699" lon="6.62774"><ele>1039</ele><time>2000-01-01T01:01:31.000Z</time></trkpt><trkpt lat="43.74718" lon="6.6275"><ele>1046</ele><time>2000-01-01T01:01:41.000Z</time></trkpt><trkpt lat="43.74723" lon="6.62743"><time>2000-01-01T01:01:51.000Z</time></trkpt><trkpt lat="43.74728" lon="6.6273"><time>2000-01-01T01:02:01.000Z</time></trkpt><trkpt lat="43.74734" lon="6.6271"><ele>1048</ele><time>2000-01-01T01:02:11.000Z</time></trkpt><trkpt lat="43.7474" lon="6.62692"><time>2000-01-01T01:02:21.000Z</time></trkpt><trkpt lat="43.74743" lon="6.62682"><ele>1050</ele><time>2000-01-01T01:02:31.000Z</time></trkpt><trkpt lat="43.74748" lon="6.62669"><time>2000-01-01T01:02:41.000Z</time></trkpt><trkpt lat="43.74754" lon="6.62655"><ele>1053</ele><time>2000-01-01T01:02:51.000Z</time></trkpt><trkpt lat="43.74763" lon="6.6264"><time>2000-01-01T01:03:01.000Z</time></trkpt><trkpt lat="43.74768" lon="6.62632"><ele>1053</ele><time>2000-01-01T01:03:11.000Z</time></trkpt><trkpt lat="43.74771" lon="6.62629"><time>2000-01-01T01:03:21.000Z</time></trkpt><trkpt lat="43.74794" lon="6.62615"><ele>1054</ele><time>2000-01-01T01:03:31.000Z</time></trkpt><trkpt lat="43.74803" lon="6.6261"><time>2000-01-01T01:03:41.000Z</time></trkpt><trkpt lat="43.74812" lon="6.62605"><ele>1058</ele><time>2000-01-01T01:03:51.000Z</time></trkpt><trkpt lat="43.74836" lon="6.62592"><ele>1065</ele><time>2000-01-01T01:04:01.000Z</time></trkpt><trkpt lat="43.74844" lon="6.62588"><time>2000-01-01T01:04:11.000Z</time></trkpt><trkpt lat="43.74861" lon="6.62578"><ele>1065</ele><time>2000-01-01T01:04:21.000Z</time></trkpt><trkpt lat="43.74866" lon="6.62575"><time>2000-01-01T01:04:31.000Z</time></trkpt><trkpt lat="43.74885" lon="6.62569"><ele>1065</ele><time>2000-01-01T01:04:41.000Z</time></trkpt><trkpt lat="43.74889" lon="6.62568"><time>2000-01-01T01:04:51.000Z</time></trkpt><trkpt lat="43.74899" lon="6.62559"><time>2000-01-01T01:05:01.000Z</time></trkpt><trkpt lat="43.74908" lon="6.62552"><ele>1065</ele><time>2000-01-01T01:05:11.000Z</time></trkpt><trkpt lat="43.74915" lon="6.62547"><time>2000-01-01T01:05:21.000Z</time></trkpt><trkpt lat="43.74922" lon="6.62546"><time>2000-01-01T01:05:31.000Z</time></trkpt><trkpt lat="43.74936" lon="6.62531"><ele>1074</ele><time>2000-01-01T01:05:41.000Z</time></trkpt><trkpt lat="43.74944" lon="6.62522"><time>2000-01-01T01:05:51.000Z</time></trkpt><trkpt lat="43.74954" lon="6.62514"><ele>1079</ele><time>2000-01-01T01:06:01.000Z</time></trkpt><trkpt lat="43.74963" lon="6.62509"><time>2000-01-01T01:06:11.000Z</time></trkpt><trkpt lat="43.74972" lon="6.62504"><ele>1080</ele><time>2000-01-01T01:06:21.000Z</time></trkpt><trkpt lat="43.7499" lon="6.62496"><time>2000-01-01T01:06:31.000Z</time></trkpt><trkpt lat="43.74999" lon="6.62492"><ele>1082</ele><time>2000-01-01T01:06:41.000Z</time></trkpt><trkpt lat="43.75007" lon="6.62488"><time>2000-01-01T01:06:51.000Z</time></trkpt><trkpt lat="43.75016" lon="6.62484"><time>2000-01-01T01:07:01.000Z</time></trkpt><trkpt lat="43.75024" lon="6.62479"><ele>1088</ele><time>2000-01-01T01:07:11.000Z</time></trkpt><trkpt lat="43.75033" lon="6.62474"><time>2000-01-01T01:07:21.000Z</time></trkpt><trkpt lat="43.75038" lon="6.62472"><time>2000-01-01T01:07:31.000Z</time></trkpt><trkpt lat="43.75045" lon="6.62473"><ele>1088</ele><time>2000-01-01T01:07:41.000Z</time></trkpt><trkpt lat="43.75052" lon="6.62473"><time>2000-01-01T01:07:51.000Z</time></trkpt><trkpt lat="43.7506" lon="6.62475"><time>2000-01-01T01:08:01.000Z</time></trkpt><trkpt lat="43.75063" lon="6.62476"><time>2000-01-01T01:08:11.000Z</time></trkpt><trkpt lat="43.75086" lon="6.62469"><ele>1100</ele><time>2000-01-01T01:08:21.000Z</time></trkpt><trkpt lat="43.75094" lon="6.62467"><time>2000-01-01T01:08:31.000Z</time></trkpt><trkpt lat="43.75109" lon="6.62462"><ele>1102</ele><time>2000-01-01T01:08:41.000Z</time></trkpt><trkpt lat="43.75119" lon="6.62458"><time>2000-01-01T01:08:51.000Z</time></trkpt><trkpt lat="43.75128" lon="6.62454"><ele>1104</ele><time>2000-01-01T01:09:01.000Z</time></trkpt><trkpt lat="43.75137" lon="6.62449"><time>2000-01-01T01:09:11.000Z</time></trkpt><trkpt lat="43.75142" lon="6.62446"><time>2000-01-01T01:09:21.000Z</time></trkpt><trkpt lat="43.75151" lon="6.62446"><ele>1106</ele><time>2000-01-01T01:09:31.000Z</time></trkpt><trkpt lat="43.75155" lon="6.62459"><time>2000-01-01T01:09:41.000Z</time></trkpt><trkpt lat="43.75159" lon="6.62469"><time>2000-01-01T01:09:51.000Z</time></trkpt><trkpt lat="43.75165" lon="6.62473"><ele>1109</ele><time>2000-01-01T01:10:01.000Z</time></trkpt><trkpt lat="43.75169" lon="6.62475"><time>2000-01-01T01:10:11.000Z</time></trkpt><trkpt lat="43.75171" lon="6.62487"><time>2000-01-01T01:10:21.000Z</time></trkpt><trkpt lat="43.75176" lon="6.62507"><ele>1109</ele><time>2000-01-01T01:10:31.000Z</time></trkpt><trkpt lat="43.75184" lon="6.62528"><time>2000-01-01T01:10:41.000Z</time></trkpt><trkpt lat="43.75193" lon="6.62551"><ele>1102</ele><time>2000-01-01T01:10:51.000Z</time></trkpt><trkpt lat="43.75199" lon="6.62569"><time>2000-01-01T01:11:01.000Z</time></trkpt><trkpt lat="43.75199" lon="6.62587"><ele>1107</ele><time>2000-01-01T01:11:11.000Z</time></trkpt><trkpt lat="43.75196" lon="6.62599"><time>2000-01-01T01:11:21.000Z</time></trkpt><trkpt lat="43.75184" lon="6.62613"><ele>1112</ele><time>2000-01-01T01:11:31.000Z</time></trkpt><trkpt lat="43.75182" lon="6.62626"><time>2000-01-01T01:11:41.000Z</time></trkpt><trkpt lat="43.75179" lon="6.62646"><ele>1112</ele><time>2000-01-01T01:11:51.000Z</time></trkpt><trkpt lat="43.75167" lon="6.62678"><ele>1112</ele><time>2000-01-01T01:12:01.000Z</time></trkpt><trkpt lat="43.75162" lon="6.627"><time>2000-01-01T01:12:11.000Z</time></trkpt><trkpt lat="43.75161" lon="6.62724"><ele>1102</ele><time>2000-01-01T01:12:21.000Z</time></trkpt><trkpt lat="43.75162" lon="6.62739"><time>2000-01-01T01:12:31.000Z</time></trkpt><trkpt lat="43.75169" lon="6.6277"><ele>1085</ele><time>2000-01-01T01:12:41.000Z</time></trkpt><trkpt lat="43.7517" lon="6.62786"><time>2000-01-01T01:12:51.000Z</time></trkpt><trkpt lat="43.75164" lon="6.6281"><ele>1075</ele><time>2000-01-01T01:13:01.000Z</time></trkpt><trkpt lat="43.75152" lon="6.62835"><ele>1070</ele><time>2000-01-01T01:13:11.000Z</time></trkpt><trkpt lat="43.75136" lon="6.62855"><ele>1070</ele><time>2000-01-01T01:13:21.000Z</time></trkpt><trkpt lat="43.75123" lon="6.62864"><time>2000-01-01T01:13:31.000Z</time></trkpt><trkpt lat="43.75107" lon="6.62866"><ele>1071</ele><time>2000-01-01T01:13:41.000Z</time></trkpt><trkpt lat="43.75097" lon="6.6287"><time>2000-01-01T01:13:51.000Z</time></trkpt><trkpt lat="43.7508" lon="6.62878"><ele>1070</ele><time>2000-01-01T01:14:01.000Z</time></trkpt><trkpt lat="43.75073" lon="6.62883"><time>2000-01-01T01:14:11.000Z</time></trkpt><trkpt lat="43.75069" lon="6.6289"><time>2000-01-01T01:14:21.000Z</time></trkpt><trkpt lat="43.75066" lon="6.62909"><ele>1070</ele><time>2000-01-01T01:14:31.000Z</time></trkpt><trkpt lat="43.75062" lon="6.62923"><time>2000-01-01T01:14:41.000Z</time></trkpt><trkpt lat="43.75044" lon="6.62949"><ele>1066</ele><time>2000-01-01T01:14:51.000Z</time></trkpt><trkpt lat="43.75031" lon="6.62965"><time>2000-01-01T01:15:01.000Z</time></trkpt><trkpt lat="43.75036" lon="6.63005"><ele>1067</ele><time>2000-01-01T01:15:11.000Z</time></trkpt><trkpt lat="43.7504" lon="6.63022"><time>2000-01-01T01:15:21.000Z</time></trkpt><trkpt lat="43.75049" lon="6.6303"><ele>1067</ele><time>2000-01-01T01:15:31.000Z</time></trkpt><trkpt lat="43.75069" lon="6.63034"><ele>1065</ele><time>2000-01-01T01:15:41.000Z</time></trkpt><trkpt lat="43.75085" lon="6.63039"><time>2000-01-01T01:15:51.000Z</time></trkpt><trkpt lat="43.75105" lon="6.63045"><ele>1064</ele><time>2000-01-01T01:16:01.000Z</time></trkpt><trkpt lat="43.7512" lon="6.6305"><time>2000-01-01T01:16:11.000Z</time></trkpt><trkpt lat="43.75137" lon="6.63056"><ele>1060</ele><time>2000-01-01T01:16:21.000Z</time></trkpt><trkpt lat="43.75152" lon="6.63061"><time>2000-01-01T01:16:31.000Z</time></trkpt><trkpt lat="43.75167" lon="6.63067"><ele>1060</ele><time>2000-01-01T01:16:41.000Z</time></trkpt><trkpt lat="43.75182" lon="6.63072"><time>2000-01-01T01:16:51.000Z</time></trkpt><trkpt lat="43.75189" lon="6.63075"><ele>1059</ele><time>2000-01-01T01:17:01.000Z</time></trkpt><trkpt lat="43.75199" lon="6.63077"><time>2000-01-01T01:17:11.000Z</time></trkpt><trkpt lat="43.75209" lon="6.63078"><ele>1059</ele><time>2000-01-01T01:17:21.000Z</time></trkpt><trkpt lat="43.75224" lon="6.63082"><time>2000-01-01T01:17:31.000Z</time></trkpt><trkpt lat="43.75241" lon="6.63086"><ele>1059</ele><time>2000-01-01T01:17:41.000Z</time></trkpt><trkpt lat="43.75253" lon="6.63088"><time>2000-01-01T01:17:51.000Z</time></trkpt><trkpt lat="43.75269" lon="6.63093"><ele>1059</ele><time>2000-01-01T01:18:01.000Z</time></trkpt><trkpt lat="43.75283" lon="6.63097"><time>2000-01-01T01:18:11.000Z</time></trkpt><trkpt lat="43.75297" lon="6.63102"><ele>1058</ele><time>2000-01-01T01:18:21.000Z</time></trkpt><trkpt lat="43.75302" lon="6.63099"><time>2000-01-01T01:18:31.000Z</time></trkpt><trkpt lat="43.75313" lon="6.63093"><time>2000-01-01T01:18:41.000Z</time></trkpt><trkpt lat="43.75322" lon="6.63087"><ele>1057</ele><time>2000-01-01T01:18:51.000Z</time></trkpt><trkpt lat="43.75333" lon="6.63086"><time>2000-01-01T01:19:01.000Z</time></trkpt><trkpt lat="43.7534" lon="6.63085"><time>2000-01-01T01:19:11.000Z</time></trkpt><trkpt lat="43.75345" lon="6.63084"><ele>1057</ele><time>2000-01-01T01:19:21.000Z</time></trkpt><trkpt lat="43.7536" lon="6.63086"><time>2000-01-01T01:19:31.000Z</time></trkpt><trkpt lat="43.75377" lon="6.63093"><ele>1056</ele><time>2000-01-01T01:19:41.000Z</time></trkpt><trkpt lat="43.75388" lon="6.63097"><time>2000-01-01T01:19:51.000Z</time></trkpt><trkpt lat="43.75406" lon="6.63106"><ele>1055</ele><time>2000-01-01T01:20:01.000Z</time></trkpt><trkpt lat="43.7543" lon="6.63118"><ele>1052</ele><time>2000-01-01T01:20:11.000Z</time></trkpt><trkpt lat="43.75444" lon="6.63131"><time>2000-01-01T01:20:21.000Z</time></trkpt><trkpt lat="43.75461" lon="6.63153"><ele>1053</ele><time>2000-01-01T01:20:31.000Z</time></trkpt><trkpt lat="43.75484" lon="6.63184"><ele>1051</ele><time>2000-01-01T01:20:41.000Z</time></trkpt><trkpt lat="43.75503" lon="6.63209"><ele>1050</ele><time>2000-01-01T01:20:51.000Z</time></trkpt><trkpt lat="43.75523" lon="6.63234"><ele>1046</ele><time>2000-01-01T01:21:01.000Z</time></trkpt><trkpt lat="43.75543" lon="6.63265"><ele>1040</ele><time>2000-01-01T01:21:11.000Z</time></trkpt><trkpt lat="43.75556" lon="6.63283"><time>2000-01-01T01:21:21.000Z</time></trkpt><trkpt lat="43.75563" lon="6.63296"><ele>1039</ele><time>2000-01-01T01:21:31.000Z</time></trkpt><trkpt lat="43.75571" lon="6.63306"><time>2000-01-01T01:21:41.000Z</time></trkpt><trkpt lat="43.75581" lon="6.63319"><ele>1037</ele><time>2000-01-01T01:21:51.000Z</time></trkpt><trkpt lat="43.75582" lon="6.63327"><time>2000-01-01T01:22:01.000Z</time></trkpt><trkpt lat="43.75585" lon="6.63347"><ele>1033</ele><time>2000-01-01T01:22:11.000Z</time></trkpt><trkpt lat="43.75586" lon="6.63358"><time>2000-01-01T01:22:21.000Z</time></trkpt><trkpt lat="43.75586" lon="6.63369"><time>2000-01-01T01:22:31.000Z</time></trkpt><trkpt lat="43.75586" lon="6.63387"><ele>1032</ele><time>2000-01-01T01:22:41.000Z</time></trkpt><trkpt lat="43.75586" lon="6.63411"><time>2000-01-01T01:22:51.000Z</time></trkpt><trkpt lat="43.75586" lon="6.63435"><ele>1032</ele><time>2000-01-01T01:23:01.000Z</time></trkpt><trkpt lat="43.75586" lon="6.63462"><time>2000-01-01T01:23:11.000Z</time></trkpt><trkpt lat="43.75587" lon="6.63482"><ele>1032</ele><time>2000-01-01T01:23:21.000Z</time></trkpt><trkpt lat="43.75588" lon="6.635"><time>2000-01-01T01:23:31.000Z</time></trkpt><trkpt lat="43.7559" lon="6.63518"><ele>1032</ele><time>2000-01-01T01:23:41.000Z</time></trkpt><trkpt lat="43.75591" lon="6.6353"><time>2000-01-01T01:23:51.000Z</time></trkpt><trkpt lat="43.75591" lon="6.63542"><time>2000-01-01T01:24:01.000Z</time></trkpt><trkpt lat="43.75593" lon="6.63556"><ele>1035</ele><time>2000-01-01T01:24:11.000Z</time></trkpt><trkpt lat="43.75595" lon="6.63572"><time>2000-01-01T01:24:21.000Z</time></trkpt><trkpt lat="43.75597" lon="6.63591"><ele>1035</ele><time>2000-01-01T01:24:31.000Z</time></trkpt><trkpt lat="43.75598" lon="6.63607"><time>2000-01-01T01:24:41.000Z</time></trkpt><trkpt lat="43.756" lon="6.63626"><ele>1034</ele><time>2000-01-01T01:24:51.000Z</time></trkpt><trkpt lat="43.75601" lon="6.63646"><time>2000-01-01T01:25:01.000Z</time></trkpt><trkpt lat="43.75602" lon="6.63662"><ele>1034</ele><time>2000-01-01T01:25:11.000Z</time></trkpt><trkpt lat="43.75603" lon="6.63674"><time>2000-01-01T01:25:21.000Z</time></trkpt><trkpt lat="43.75604" lon="6.6369"><ele>1037</ele><time>2000-01-01T01:25:31.000Z</time></trkpt><trkpt lat="43.75604" lon="6.63712"><time>2000-01-01T01:25:41.000Z</time></trkpt><trkpt lat="43.75605" lon="6.63717"><ele>1041</ele><time>2000-01-01T01:25:51.000Z</time></trkpt><trkpt lat="43.75606" lon="6.63729"><time>2000-01-01T01:26:01.000Z</time></trkpt><trkpt lat="43.75607" lon="6.63736"><time>2000-01-01T01:26:11.000Z</time></trkpt><trkpt lat="43.75611" lon="6.63753"><ele>1041</ele><time>2000-01-01T01:26:21.000Z</time></trkpt><trkpt lat="43.75618" lon="6.63774"><time>2000-01-01T01:26:31.000Z</time></trkpt><trkpt lat="43.75622" lon="6.63788"><ele>1045</ele><time>2000-01-01T01:26:41.000Z</time></trkpt><trkpt lat="43.75625" lon="6.63799"><time>2000-01-01T01:26:51.000Z</time></trkpt><trkpt lat="43.75631" lon="6.63827"><ele>1047</ele><time>2000-01-01T01:27:01.000Z</time></trkpt><trkpt lat="43.75637" lon="6.63854"><ele>1049</ele><time>2000-01-01T01:27:11.000Z</time></trkpt><trkpt lat="43.75642" lon="6.63878"><time>2000-01-01T01:27:21.000Z</time></trkpt><trkpt lat="43.75644" lon="6.63888"><ele>1049</ele><time>2000-01-01T01:27:31.000Z</time></trkpt><trkpt lat="43.75646" lon="6.63918"><ele>1048</ele><time>2000-01-01T01:27:41.000Z</time></trkpt><trkpt lat="43.75647" lon="6.63933"><time>2000-01-01T01:27:51.000Z</time></trkpt><trkpt lat="43.75647" lon="6.63941"><time>2000-01-01T01:28:01.000Z</time></trkpt><trkpt lat="43.75646" lon="6.6395"><ele>1048</ele><time>2000-01-01T01:28:11.000Z</time></trkpt><trkpt lat="43.75642" lon="6.6401"><ele>1041</ele><time>2000-01-01T01:28:21.000Z</time></trkpt><trkpt lat="43.75641" lon="6.64014"><time>2000-01-01T01:28:31.000Z</time></trkpt><trkpt lat="43.75641" lon="6.64022"><time>2000-01-01T01:28:41.000Z</time></trkpt><trkpt lat="43.75641" lon="6.64045"><ele>1037</ele><time>2000-01-01T01:28:51.000Z</time></trkpt><trkpt lat="43.75641" lon="6.64057"><time>2000-01-01T01:29:01.000Z</time></trkpt><trkpt lat="43.75641" lon="6.64067"><time>2000-01-01T01:29:11.000Z</time></trkpt><trkpt lat="43.75642" lon="6.64077"><ele>1036</ele><time>2000-01-01T01:29:21.000Z</time></trkpt><trkpt lat="43.75642" lon="6.64086"><time>2000-01-01T01:29:31.000Z</time></trkpt><trkpt lat="43.75642" lon="6.64106"><ele>1034</ele><time>2000-01-01T01:29:41.000Z</time></trkpt><trkpt lat="43.75642" lon="6.64125"><time>2000-01-01T01:29:51.000Z</time></trkpt><trkpt lat="43.75642" lon="6.64135"><ele>1034</ele><time>2000-01-01T01:30:01.000Z</time></trkpt><trkpt lat="43.75641" lon="6.64151"><time>2000-01-01T01:30:11.000Z</time></trkpt><trkpt lat="43.7564" lon="6.64173"><ele>1036</ele><time>2000-01-01T01:30:21.000Z</time></trkpt><trkpt lat="43.75638" lon="6.64188"><time>2000-01-01T01:30:31.000Z</time></trkpt><trkpt lat="43.75638" lon="6.64193"><time>2000-01-01T01:30:41.000Z</time></trkpt><trkpt lat="43.75635" lon="6.64228"><ele>1046</ele><time>2000-01-01T01:30:51.000Z</time></trkpt><trkpt lat="43.75633" lon="6.64245"><time>2000-01-01T01:31:01.000Z</time></trkpt><trkpt lat="43.75633" lon="6.64265"><ele>1050</ele><time>2000-01-01T01:31:11.000Z</time></trkpt><trkpt lat="43.75632" lon="6.64281"><time>2000-01-01T01:31:21.000Z</time></trkpt><trkpt lat="43.75628" lon="6.64314"><ele>1060</ele><time>2000-01-01T01:31:31.000Z</time></trkpt><trkpt lat="43.75625" lon="6.6434"><time>2000-01-01T01:31:41.000Z</time></trkpt><trkpt lat="43.75624" lon="6.64354"><ele>1060</ele><time>2000-01-01T01:31:51.000Z</time></trkpt><trkpt lat="43.75625" lon="6.64386"><ele>1065</ele><time>2000-01-01T01:32:01.000Z</time></trkpt><trkpt lat="43.75627" lon="6.64416"><ele>1070</ele><time>2000-01-01T01:32:11.000Z</time></trkpt><trkpt lat="43.75627" lon="6.64433"><time>2000-01-01T01:32:21.000Z</time></trkpt><trkpt lat="43.75627" lon="6.64454"><ele>1072</ele><time>2000-01-01T01:32:31.000Z</time></trkpt><trkpt lat="43.75624" lon="6.6448"><time>2000-01-01T01:32:41.000Z</time></trkpt><trkpt lat="43.75624" lon="6.64491"><ele>1074</ele><time>2000-01-01T01:32:51.000Z</time></trkpt><trkpt lat="43.75624" lon="6.64501"><time>2000-01-01T01:33:01.000Z</time></trkpt><trkpt lat="43.75627" lon="6.64515"><time>2000-01-01T01:33:11.000Z</time></trkpt><trkpt lat="43.7563" lon="6.64525"><ele>1072</ele><time>2000-01-01T01:33:21.000Z</time></trkpt><trkpt lat="43.75631" lon="6.64545"><time>2000-01-01T01:33:31.000Z</time></trkpt><trkpt lat="43.7563" lon="6.64559"><ele>1075</ele><time>2000-01-01T01:33:41.000Z</time></trkpt><trkpt lat="43.75629" lon="6.6457"><time>2000-01-01T01:33:51.000Z</time></trkpt><trkpt lat="43.75627" lon="6.64586"><ele>1076</ele><time>2000-01-01T01:34:01.000Z</time></trkpt><trkpt lat="43.75629" lon="6.646"><time>2000-01-01T01:34:11.000Z</time></trkpt><trkpt lat="43.75632" lon="6.64611"><time>2000-01-01T01:34:21.000Z</time></trkpt><trkpt lat="43.75636" lon="6.64621"><ele>1077</ele><time>2000-01-01T01:34:31.000Z</time></trkpt><trkpt lat="43.75647" lon="6.64644"><ele>1083</ele><time>2000-01-01T01:34:41.000Z</time></trkpt><trkpt lat="43.75657" lon="6.64665"><time>2000-01-01T01:34:51.000Z</time></trkpt><trkpt lat="43.75664" lon="6.64685"><ele>1085</ele><time>2000-01-01T01:35:01.000Z</time></trkpt><trkpt lat="43.75666" lon="6.64691"><time>2000-01-01T01:35:11.000Z</time></trkpt><trkpt lat="43.75675" lon="6.64713"><ele>1086</ele><time>2000-01-01T01:35:21.000Z</time></trkpt><trkpt lat="43.75683" lon="6.64727"><time>2000-01-01T01:35:31.000Z</time></trkpt><trkpt lat="43.7569" lon="6.64742"><ele>1082</ele><time>2000-01-01T01:35:41.000Z</time></trkpt><trkpt lat="43.75693" lon="6.64765"><time>2000-01-01T01:35:51.000Z</time></trkpt><trkpt lat="43.75696" lon="6.64776"><ele>1081</ele><time>2000-01-01T01:36:01.000Z</time></trkpt><trkpt lat="43.75697" lon="6.64794"><time>2000-01-01T01:36:11.000Z</time></trkpt><trkpt lat="43.75699" lon="6.64807"><ele>1080</ele><time>2000-01-01T01:36:21.000Z</time></trkpt><trkpt lat="43.75704" lon="6.64819"><time>2000-01-01T01:36:31.000Z</time></trkpt><trkpt lat="43.75717" lon="6.64846"><ele>1084</ele><time>2000-01-01T01:36:41.000Z</time></trkpt><trkpt lat="43.75727" lon="6.64866"><time>2000-01-01T01:36:51.000Z</time></trkpt><trkpt lat="43.75734" lon="6.64881"><ele>1084</ele><time>2000-01-01T01:37:01.000Z</time></trkpt><trkpt lat="43.75749" lon="6.64915"><ele>1084</ele><time>2000-01-01T01:37:11.000Z</time></trkpt><trkpt lat="43.75759" lon="6.64935"><time>2000-01-01T01:37:21.000Z</time></trkpt><trkpt lat="43.75766" lon="6.64949"><ele>1077</ele><time>2000-01-01T01:37:31.000Z</time></trkpt><trkpt lat="43.75774" lon="6.64964"><time>2000-01-01T01:37:41.000Z</time></trkpt><trkpt lat="43.75786" lon="6.64984"><ele>1070</ele><time>2000-01-01T01:37:51.000Z</time></trkpt><trkpt lat="43.75797" lon="6.65"><time>2000-01-01T01:38:01.000Z</time></trkpt><trkpt lat="43.75811" lon="6.65019"><ele>1073</ele><time>2000-01-01T01:38:11.000Z</time></trkpt><trkpt lat="43.75823" lon="6.65036"><time>2000-01-01T01:38:21.000Z</time></trkpt><trkpt lat="43.75838" lon="6.65058"><ele>1073</ele><time>2000-01-01T01:38:31.000Z</time></trkpt><trkpt lat="43.75851" lon="6.65076"><time>2000-01-01T01:38:41.000Z</time></trkpt><trkpt lat="43.75864" lon="6.65098"><ele>1074</ele><time>2000-01-01T01:38:51.000Z</time></trkpt><trkpt lat="43.75872" lon="6.65113"><time>2000-01-01T01:39:01.000Z</time></trkpt><trkpt lat="43.75879" lon="6.65132"><ele>1068</ele><time>2000-01-01T01:39:11.000Z</time></trkpt><trkpt lat="43.75889" lon="6.65157"><ele>1073</ele><time>2000-01-01T01:39:21.000Z</time></trkpt><trkpt lat="43.75898" lon="6.65175"><time>2000-01-01T01:39:31.000Z</time></trkpt><trkpt lat="43.7591" lon="6.65199"><ele>1073</ele><time>2000-01-01T01:39:41.000Z</time></trkpt><trkpt lat="43.75922" lon="6.65225"><ele>1073</ele><time>2000-01-01T01:39:51.000Z</time></trkpt><trkpt lat="43.75939" lon="6.6526"><ele>1072</ele><time>2000-01-01T01:40:01.000Z</time></trkpt><trkpt lat="43.75943" lon="6.65267"><time>2000-01-01T01:40:11.000Z</time></trkpt><trkpt lat="43.75951" lon="6.65289"><ele>1071</ele><time>2000-01-01T01:40:21.000Z</time></trkpt><trkpt lat="43.75965" lon="6.65329"><ele>1064</ele><time>2000-01-01T01:40:31.000Z</time></trkpt><trkpt lat="43.7597" lon="6.65341"><time>2000-01-01T01:40:41.000Z</time></trkpt><trkpt lat="43.75983" lon="6.65374"><ele>1064</ele><time>2000-01-01T01:40:51.000Z</time></trkpt><trkpt lat="43.75991" lon="6.65399"><ele>1062</ele><time>2000-01-01T01:41:01.000Z</time></trkpt><trkpt lat="43.76004" lon="6.65427"><ele>1065</ele><time>2000-01-01T01:41:11.000Z</time></trkpt><trkpt lat="43.76015" lon="6.65462"><ele>1065</ele><time>2000-01-01T01:41:21.000Z</time></trkpt><trkpt lat="43.76022" lon="6.65483"><time>2000-01-01T01:41:31.000Z</time></trkpt><trkpt lat="43.76032" lon="6.65532"><ele>1066</ele><time>2000-01-01T01:41:41.000Z</time></trkpt><trkpt lat="43.76043" lon="6.6559"><ele>1068</ele><time>2000-01-01T01:41:51.000Z</time></trkpt><trkpt lat="43.76048" lon="6.65629"><ele>1065</ele><time>2000-01-01T01:42:01.000Z</time></trkpt><trkpt lat="43.76056" lon="6.65675"><ele>1064</ele><time>2000-01-01T01:42:11.000Z</time></trkpt><trkpt lat="43.76059" lon="6.65694"><time>2000-01-01T01:42:21.000Z</time></trkpt><trkpt lat="43.76063" lon="6.65711"><ele>1063</ele><time>2000-01-01T01:42:31.000Z</time></trkpt><trkpt lat="43.76071" lon="6.65734"><time>2000-01-01T01:42:41.000Z</time></trkpt><trkpt lat="43.7608" lon="6.65756"><ele>1057</ele><time>2000-01-01T01:42:51.000Z</time></trkpt><trkpt lat="43.76087" lon="6.65774"><time>2000-01-01T01:43:01.000Z</time></trkpt><trkpt lat="43.76097" lon="6.65794"><ele>1051</ele><time>2000-01-01T01:43:11.000Z</time></trkpt><trkpt lat="43.7609" lon="6.65788"><time>2000-01-01T01:43:21.000Z</time></trkpt><trkpt lat="43.76083" lon="6.65779"><time>2000-01-01T01:43:31.000Z</time></trkpt><trkpt lat="43.76077" lon="6.65771"><ele>1051</ele><time>2000-01-01T01:43:41.000Z</time></trkpt><trkpt lat="43.7607" lon="6.6576"><time>2000-01-01T01:43:51.000Z</time></trkpt><trkpt lat="43.76064" lon="6.65753"><time>2000-01-01T01:44:01.000Z</time></trkpt><trkpt lat="43.7606" lon="6.65749"><ele>1066</ele><time>2000-01-01T01:44:11.000Z</time></trkpt><trkpt lat="43.76056" lon="6.65747"><time>2000-01-01T01:44:21.000Z</time></trkpt><trkpt lat="43.7605" lon="6.65746"><time>2000-01-01T01:44:31.000Z</time></trkpt><trkpt lat="43.76046" lon="6.65747"><time>2000-01-01T01:44:41.000Z</time></trkpt><trkpt lat="43.76042" lon="6.65749"><time>2000-01-01T01:44:51.000Z</time></trkpt><trkpt lat="43.76039" lon="6.65753"><ele>1072</ele><time>2000-01-01T01:45:01.000Z</time></trkpt><trkpt lat="43.76036" lon="6.65765"><time>2000-01-01T01:45:11.000Z</time></trkpt><trkpt lat="43.76031" lon="6.65779"><ele>1072</ele><time>2000-01-01T01:45:21.000Z</time></trkpt><trkpt lat="43.76021" lon="6.65801"><time>2000-01-01T01:45:31.000Z</time></trkpt><trkpt lat="43.76012" lon="6.65823"><ele>1077</ele><time>2000-01-01T01:45:41.000Z</time></trkpt><trkpt lat="43.76003" lon="6.65851"><ele>1083</ele><time>2000-01-01T01:45:51.000Z</time></trkpt><trkpt lat="43.75995" lon="6.65872"><time>2000-01-01T01:46:01.000Z</time></trkpt><trkpt lat="43.75987" lon="6.65899"><ele>1086</ele><time>2000-01-01T01:46:11.000Z</time></trkpt><trkpt lat="43.75976" lon="6.65935"><ele>1087</ele><time>2000-01-01T01:46:21.000Z</time></trkpt><trkpt lat="43.75968" lon="6.65965"><ele>1087</ele><time>2000-01-01T01:46:31.000Z</time></trkpt><trkpt lat="43.75963" lon="6.65984"><time>2000-01-01T01:46:41.000Z</time></trkpt><trkpt lat="43.75961" lon="6.65995"><ele>1088</ele><time>2000-01-01T01:46:51.000Z</time></trkpt><trkpt lat="43.75957" lon="6.66003"><time>2000-01-01T01:47:01.000Z</time></trkpt><trkpt lat="43.75952" lon="6.66016"><time>2000-01-01T01:47:11.000Z</time></trkpt><trkpt lat="43.75949" lon="6.66022"><ele>1100</ele><time>2000-01-01T01:47:21.000Z</time></trkpt><trkpt lat="43.7594" lon="6.66033"><time>2000-01-01T01:47:31.000Z</time></trkpt><trkpt lat="43.75915" lon="6.66065"><ele>1105</ele><time>2000-01-01T01:47:41.000Z</time></trkpt><trkpt lat="43.75896" lon="6.66089"><ele>1113</ele><time>2000-01-01T01:47:51.000Z</time></trkpt><trkpt lat="43.75876" lon="6.66113"><ele>1122</ele><time>2000-01-01T01:48:01.000Z</time></trkpt><trkpt lat="43.75853" lon="6.6614"><ele>1127</ele><time>2000-01-01T01:48:11.000Z</time></trkpt><trkpt lat="43.7583" lon="6.66169"><ele>1144</ele><time>2000-01-01T01:48:21.000Z</time></trkpt><trkpt lat="43.7582" lon="6.6618"><time>2000-01-01T01:48:31.000Z</time></trkpt><trkpt lat="43.75818" lon="6.66187"><time>2000-01-01T01:48:41.000Z</time></trkpt><trkpt lat="43.75816" lon="6.66203"><ele>1163</ele><time>2000-01-01T01:48:51.000Z</time></trkpt><trkpt lat="43.75812" lon="6.66242"><ele>1165</ele><time>2000-01-01T01:49:01.000Z</time></trkpt><trkpt lat="43.75809" lon="6.66275"><ele>1166</ele><time>2000-01-01T01:49:11.000Z</time></trkpt><trkpt lat="43.75806" lon="6.66301"><time>2000-01-01T01:49:21.000Z</time></trkpt><trkpt lat="43.75804" lon="6.66314"><ele>1167</ele><time>2000-01-01T01:49:31.000Z</time></trkpt><trkpt lat="43.75795" lon="6.66338"><time>2000-01-01T01:49:41.000Z</time></trkpt><trkpt lat="43.75785" lon="6.66359"><ele>1186</ele><time>2000-01-01T01:49:51.000Z</time></trkpt><trkpt lat="43.75777" lon="6.66375"><time>2000-01-01T01:50:01.000Z</time></trkpt><trkpt lat="43.7577" lon="6.6639"><ele>1188</ele><time>2000-01-01T01:50:11.000Z</time></trkpt><trkpt lat="43.75768" lon="6.66395"><time>2000-01-01T01:50:21.000Z</time></trkpt><trkpt lat="43.75756" lon="6.6641"><ele>1198</ele><time>2000-01-01T01:50:31.000Z</time></trkpt><trkpt lat="43.75745" lon="6.66422"><time>2000-01-01T01:50:41.000Z</time></trkpt><trkpt lat="43.75739" lon="6.66429"><ele>1206</ele><time>2000-01-01T01:50:51.000Z</time></trkpt><trkpt lat="43.75732" lon="6.66433"><time>2000-01-01T01:51:01.000Z</time></trkpt><trkpt lat="43.75725" lon="6.66434"><time>2000-01-01T01:51:11.000Z</time></trkpt><trkpt lat="43.75718" lon="6.66436"><ele>1206</ele><time>2000-01-01T01:51:21.000Z</time></trkpt><trkpt lat="43.75714" lon="6.66432"><time>2000-01-01T01:51:31.000Z</time></trkpt><trkpt lat="43.75712" lon="6.66429"><time>2000-01-01T01:51:41.000Z</time></trkpt><trkpt lat="43.75708" lon="6.66428"><time>2000-01-01T01:51:51.000Z</time></trkpt><trkpt lat="43.75702" lon="6.66428"><time>2000-01-01T01:52:01.000Z</time></trkpt><trkpt lat="43.75699" lon="6.66427"><ele>1208</ele><time>2000-01-01T01:52:11.000Z</time></trkpt><trkpt lat="43.75694" lon="6.66424"><time>2000-01-01T01:52:21.000Z</time></trkpt><trkpt lat="43.75692" lon="6.66422"><time>2000-01-01T01:52:31.000Z</time></trkpt><trkpt lat="43.75691" lon="6.66418"><time>2000-01-01T01:52:41.000Z</time></trkpt><trkpt lat="43.75691" lon="6.66409"><time>2000-01-01T01:52:51.000Z</time></trkpt><trkpt lat="43.75692" lon="6.66396"><ele>1208</ele><time>2000-01-01T01:53:01.000Z</time></trkpt><trkpt lat="43.75692" lon="6.66391"><time>2000-01-01T01:53:11.000Z</time></trkpt><trkpt lat="43.75696" lon="6.66374"><time>2000-01-01T01:53:21.000Z</time></trkpt><trkpt lat="43.75696" lon="6.66364"><ele>1208</ele><time>2000-01-01T01:53:31.000Z</time></trkpt><trkpt lat="43.75692" lon="6.66347"><time>2000-01-01T01:53:41.000Z</time></trkpt><trkpt lat="43.75689" lon="6.66332"><ele>1219</ele><time>2000-01-01T01:53:51.000Z</time></trkpt><trkpt lat="43.75687" lon="6.66324"><time>2000-01-01T01:54:01.000Z</time></trkpt><trkpt lat="43.75685" lon="6.66319"><time>2000-01-01T01:54:11.000Z</time></trkpt><trkpt lat="43.75682" lon="6.6631"><time>2000-01-01T01:54:21.000Z</time></trkpt><trkpt lat="43.7568" lon="6.66306"><ele>1227</ele><time>2000-01-01T01:54:31.000Z</time></trkpt><trkpt lat="43.75674" lon="6.66297"><time>2000-01-01T01:54:41.000Z</time></trkpt><trkpt lat="43.7567" lon="6.66292"><time>2000-01-01T01:54:51.000Z</time></trkpt><trkpt lat="43.75666" lon="6.66287"><ele>1236</ele><time>2000-01-01T01:55:01.000Z</time></trkpt><trkpt lat="43.75663" lon="6.6628"><time>2000-01-01T01:55:11.000Z</time></trkpt><trkpt lat="43.75658" lon="6.66266"><time>2000-01-01T01:55:21.000Z</time></trkpt><trkpt lat="43.75656" lon="6.6626"><ele>1239</ele><time>2000-01-01T01:55:31.000Z</time></trkpt><trkpt lat="43.75654" lon="6.66251"><time>2000-01-01T01:55:41.000Z</time></trkpt><trkpt lat="43.75648" lon="6.66223"><ele>1243</ele><time>2000-01-01T01:55:51.000Z</time></trkpt><trkpt lat="43.75645" lon="6.66211"><time>2000-01-01T01:56:01.000Z</time></trkpt><trkpt lat="43.75643" lon="6.66202"><time>2000-01-01T01:56:11.000Z</time></trkpt><trkpt lat="43.75642" lon="6.66197"><ele>1248</ele><time>2000-01-01T01:56:21.000Z</time></trkpt><trkpt lat="43.75641" lon="6.66194"><time>2000-01-01T01:56:31.000Z</time></trkpt><trkpt lat="43.75642" lon="6.66179"><time>2000-01-01T01:56:41.000Z</time></trkpt><trkpt lat="43.75643" lon="6.66164"><ele>1254</ele><time>2000-01-01T01:56:51.000Z</time></trkpt><trkpt lat="43.75648" lon="6.66152"><time>2000-01-01T01:57:01.000Z</time></trkpt><trkpt lat="43.75654" lon="6.66139"><ele>1262</ele><time>2000-01-01T01:57:11.000Z</time></trkpt><trkpt lat="43.7566" lon="6.66126"><time>2000-01-01T01:57:21.000Z</time></trkpt><trkpt lat="43.75666" lon="6.66117"><ele>1264</ele><time>2000-01-01T01:57:31.000Z</time></trkpt><trkpt lat="43.75674" lon="6.66105"><time>2000-01-01T01:57:41.000Z</time></trkpt><trkpt lat="43.75677" lon="6.66097"><time>2000-01-01T01:57:51.000Z</time></trkpt><trkpt lat="43.75677" lon="6.66093"><ele>1277</ele><time>2000-01-01T01:58:01.000Z</time></trkpt><trkpt lat="43.75677" lon="6.6609"><time>2000-01-01T01:58:11.000Z</time></trkpt><trkpt lat="43.75673" lon="6.66085"><time>2000-01-01T01:58:21.000Z</time></trkpt><trkpt lat="43.75666" lon="6.66082"><time>2000-01-01T01:58:31.000Z</time></trkpt><trkpt lat="43.75659" lon="6.6608"><ele>1284</ele><time>2000-01-01T01:58:41.000Z</time></trkpt><trkpt lat="43.75656" lon="6.66079"><time>2000-01-01T01:58:51.000Z</time></trkpt><trkpt lat="43.75654" lon="6.6608"><time>2000-01-01T01:59:01.000Z</time></trkpt><trkpt lat="43.75635" lon="6.66092"><ele>1284</ele><time>2000-01-01T01:59:11.000Z</time></trkpt><trkpt lat="43.75623" lon="6.66107"><time>2000-01-01T01:59:21.000Z</time></trkpt><trkpt lat="43.75609" lon="6.66126"><ele>1285</ele><time>2000-01-01T01:59:31.000Z</time></trkpt><trkpt lat="43.75599" lon="6.66143"><time>2000-01-01T01:59:41.000Z</time></trkpt><trkpt lat="43.75589" lon="6.66161"><ele>1295</ele><time>2000-01-01T01:59:51.000Z</time></trkpt><trkpt lat="43.75584" lon="6.6617"><time>2000-01-01T02:00:01.000Z</time></trkpt><trkpt lat="43.75581" lon="6.66172"><time>2000-01-01T02:00:11.000Z</time></trkpt><trkpt lat="43.75576" lon="6.66173"><time>2000-01-01T02:00:21.000Z</time></trkpt><trkpt lat="43.7557" lon="6.66174"><ele>1295</ele><time>2000-01-01T02:00:31.000Z</time></trkpt><trkpt lat="43.75568" lon="6.66168"><time>2000-01-01T02:00:41.000Z</time></trkpt><trkpt lat="43.75565" lon="6.66153"><time>2000-01-01T02:00:51.000Z</time></trkpt><trkpt lat="43.7556" lon="6.66126"><ele>1336</ele><time>2000-01-01T02:01:01.000Z</time></trkpt><trkpt lat="43.75558" lon="6.6611"><time>2000-01-01T02:01:11.000Z</time></trkpt><trkpt lat="43.75555" lon="6.66089"><ele>1338</ele><time>2000-01-01T02:01:21.000Z</time></trkpt><trkpt lat="43.75552" lon="6.66073"><time>2000-01-01T02:01:31.000Z</time></trkpt><trkpt lat="43.7555" lon="6.66053"><ele>1349</ele><time>2000-01-01T02:01:41.000Z</time></trkpt><trkpt lat="43.75547" lon="6.66017"><ele>1372</ele><time>2000-01-01T02:01:51.000Z</time></trkpt><trkpt lat="43.75544" lon="6.65995"><time>2000-01-01T02:02:01.000Z</time></trkpt><trkpt lat="43.75542" lon="6.65992"><time>2000-01-01T02:02:11.000Z</time></trkpt><trkpt lat="43.75537" lon="6.65989"><ele>1383</ele><time>2000-01-01T02:02:21.000Z</time></trkpt><trkpt lat="43.75533" lon="6.65987"><time>2000-01-01T02:02:31.000Z</time></trkpt><trkpt lat="43.75523" lon="6.65991"><time>2000-01-01T02:02:41.000Z</time></trkpt><trkpt lat="43.75514" lon="6.66001"><ele>1380</ele><time>2000-01-01T02:02:51.000Z</time></trkpt><trkpt lat="43.75508" lon="6.66009"><time>2000-01-01T02:03:01.000Z</time></trkpt><trkpt lat="43.75494" lon="6.66033"><ele>1390</ele><time>2000-01-01T02:03:11.000Z</time></trkpt><trkpt lat="43.75483" lon="6.66053"><time>2000-01-01T02:03:21.000Z</time></trkpt><trkpt lat="43.75474" lon="6.66075"><ele>1400</ele><time>2000-01-01T02:03:31.000Z</time></trkpt><trkpt lat="43.75459" lon="6.66109"><ele>1418</ele><time>2000-01-01T02:03:41.000Z</time></trkpt><trkpt lat="43.75456" lon="6.66118"><time>2000-01-01T02:03:51.000Z</time></trkpt><trkpt lat="43.75453" lon="6.66125"><time>2000-01-01T02:04:01.000Z</time></trkpt><trkpt lat="43.75447" lon="6.66128"><time>2000-01-01T02:04:11.000Z</time></trkpt><trkpt lat="43.75445" lon="6.66129"><ele>1418</ele><time>2000-01-01T02:04:21.000Z</time></trkpt><trkpt lat="43.75439" lon="6.66123"><time>2000-01-01T02:04:31.000Z</time></trkpt><trkpt lat="43.75436" lon="6.66111"><time>2000-01-01T02:04:41.000Z</time></trkpt><trkpt lat="43.75434" lon="6.66105"><ele>1428</ele><time>2000-01-01T02:04:51.000Z</time></trkpt><trkpt lat="43.75431" lon="6.66094"><time>2000-01-01T02:05:01.000Z</time></trkpt><trkpt lat="43.75425" lon="6.66073"><ele>1429</ele><time>2000-01-01T02:05:11.000Z</time></trkpt><trkpt lat="43.75424" lon="6.66062"><time>2000-01-01T02:05:21.000Z</time></trkpt><trkpt lat="43.75421" lon="6.66041"><ele>1432</ele><time>2000-01-01T02:05:31.000Z</time></trkpt><trkpt lat="43.75413" lon="6.65993"><ele>1435</ele><time>2000-01-01T02:05:41.000Z</time></trkpt><trkpt lat="43.75405" lon="6.65941"><ele>1447</ele><time>2000-01-01T02:05:51.000Z</time></trkpt><trkpt lat="43.75405" lon="6.65935"><time>2000-01-01T02:06:01.000Z</time></trkpt><trkpt lat="43.75405" lon="6.65895"><ele>1447</ele><time>2000-01-01T02:06:11.000Z</time></trkpt><trkpt lat="43.75405" lon="6.65847"><ele>1447</ele><time>2000-01-01T02:06:21.000Z</time></trkpt><trkpt lat="43.75405" lon="6.65834"><time>2000-01-01T02:06:31.000Z</time></trkpt><trkpt lat="43.75404" lon="6.65816"><ele>1442</ele><time>2000-01-01T02:06:41.000Z</time></trkpt><trkpt lat="43.75402" lon="6.65804"><time>2000-01-01T02:06:51.000Z</time></trkpt><trkpt lat="43.75402" lon="6.65796"><time>2000-01-01T02:07:01.000Z</time></trkpt><trkpt lat="43.75401" lon="6.65787"><ele>1442</ele><time>2000-01-01T02:07:11.000Z</time></trkpt><trkpt lat="43.754" lon="6.6578"><time>2000-01-01T02:07:21.000Z</time></trkpt><trkpt lat="43.754" lon="6.65776"><time>2000-01-01T02:07:31.000Z</time></trkpt><trkpt lat="43.75398" lon="6.65769"><time>2000-01-01T02:07:41.000Z</time></trkpt><trkpt lat="43.75395" lon="6.65759"><ele>1442</ele><time>2000-01-01T02:07:51.000Z</time></trkpt><trkpt lat="43.7539" lon="6.65749"><time>2000-01-01T02:08:01.000Z</time></trkpt><trkpt lat="43.75386" lon="6.65742"><time>2000-01-01T02:08:11.000Z</time></trkpt><trkpt lat="43.75385" lon="6.65739"><time>2000-01-01T02:08:21.000Z</time></trkpt><trkpt lat="43.75381" lon="6.65736"><ele>1444</ele><time>2000-01-01T02:08:31.000Z</time></trkpt><trkpt lat="43.75377" lon="6.65733"><time>2000-01-01T02:08:41.000Z</time></trkpt><trkpt lat="43.75371" lon="6.65728"><time>2000-01-01T02:08:51.000Z</time></trkpt><trkpt lat="43.75365" lon="6.65725"><time>2000-01-01T02:09:01.000Z</time></trkpt><trkpt lat="43.75358" lon="6.65723"><ele>1449</ele><time>2000-01-01T02:09:11.000Z</time></trkpt><trkpt lat="43.75352" lon="6.6572"><time>2000-01-01T02:09:21.000Z</time></trkpt><trkpt lat="43.75347" lon="6.65718"><time>2000-01-01T02:09:31.000Z</time></trkpt><trkpt lat="43.7534" lon="6.65715"><time>2000-01-01T02:09:41.000Z</time></trkpt><trkpt lat="43.75337" lon="6.65714"><ele>1460</ele><time>2000-01-01T02:09:51.000Z</time></trkpt><trkpt lat="43.75333" lon="6.65708"><time>2000-01-01T02:10:01.000Z</time></trkpt><trkpt lat="43.75328" lon="6.65702"><time>2000-01-01T02:10:11.000Z</time></trkpt><trkpt lat="43.75314" lon="6.65685"><ele>1466</ele><time>2000-01-01T02:10:21.000Z</time></trkpt><trkpt lat="43.75298" lon="6.65665"><ele>1468</ele><time>2000-01-01T02:10:31.000Z</time></trkpt><trkpt lat="43.75289" lon="6.65654"><time>2000-01-01T02:10:41.000Z</time></trkpt><trkpt lat="43.7528" lon="6.65642"><ele>1470</ele><time>2000-01-01T02:10:51.000Z</time></trkpt><trkpt lat="43.75273" lon="6.65633"><time>2000-01-01T02:11:01.000Z</time></trkpt><trkpt lat="43.75269" lon="6.65626"><time>2000-01-01T02:11:11.000Z</time></trkpt><trkpt lat="43.75263" lon="6.65617"><ele>1476</ele><time>2000-01-01T02:11:21.000Z</time></trkpt><trkpt lat="43.75259" lon="6.6561"><time>2000-01-01T02:11:31.000Z</time></trkpt><trkpt lat="43.75256" lon="6.65602"><time>2000-01-01T02:11:41.000Z</time></trkpt><trkpt lat="43.75249" lon="6.65586"><ele>1482</ele><time>2000-01-01T02:11:51.000Z</time></trkpt><trkpt lat="43.75244" lon="6.65576"><time>2000-01-01T02:12:01.000Z</time></trkpt><trkpt lat="43.75238" lon="6.65562"><ele>1496</ele><time>2000-01-01T02:12:11.000Z</time></trkpt><trkpt lat="43.75232" lon="6.65547"><time>2000-01-01T02:12:21.000Z</time></trkpt><trkpt lat="43.75217" lon="6.65523"><ele>1497</ele><time>2000-01-01T02:12:31.000Z</time></trkpt><trkpt lat="43.75207" lon="6.65506"><time>2000-01-01T02:12:41.000Z</time></trkpt><trkpt lat="43.75198" lon="6.65491"><ele>1503</ele><time>2000-01-01T02:12:51.000Z</time></trkpt><trkpt lat="43.75183" lon="6.6547"><ele>1505</ele><time>2000-01-01T02:13:01.000Z</time></trkpt><trkpt lat="43.75173" lon="6.65454"><time>2000-01-01T02:13:11.000Z</time></trkpt><trkpt lat="43.75168" lon="6.65451"><ele>1504</ele><time>2000-01-01T02:13:21.000Z</time></trkpt><trkpt lat="43.75163" lon="6.65448"><time>2000-01-01T02:13:31.000Z</time></trkpt><trkpt lat="43.75158" lon="6.65444"><time>2000-01-01T02:13:41.000Z</time></trkpt><trkpt lat="43.75153" lon="6.65441"><time>2000-01-01T02:13:51.000Z</time></trkpt><trkpt lat="43.7515" lon="6.65435"><ele>1504</ele><time>2000-01-01T02:14:01.000Z</time></trkpt><trkpt lat="43.75147" lon="6.65428"><time>2000-01-01T02:14:11.000Z</time></trkpt><trkpt lat="43.75144" lon="6.65422"><time>2000-01-01T02:14:21.000Z</time></trkpt><trkpt lat="43.75145" lon="6.65403"><ele>1510</ele><time>2000-01-01T02:14:31.000Z</time></trkpt><trkpt lat="43.75138" lon="6.65399"><time>2000-01-01T02:14:41.000Z</time></trkpt><trkpt lat="43.75131" lon="6.65412"><time>2000-01-01T02:14:51.000Z</time></trkpt><trkpt lat="43.75124" lon="6.65427"><ele>1516</ele><time>2000-01-01T02:15:01.000Z</time></trkpt><trkpt lat="43.75119" lon="6.6544"><time>2000-01-01T02:15:11.000Z</time></trkpt><trkpt lat="43.75108" lon="6.65452"><ele>1522</ele><time>2000-01-01T02:15:21.000Z</time></trkpt><trkpt lat="43.75104" lon="6.65454"><time>2000-01-01T02:15:31.000Z</time></trkpt><trkpt lat="43.75097" lon="6.65443"><time>2000-01-01T02:15:41.000Z</time></trkpt><trkpt lat="43.75094" lon="6.65442"><time>2000-01-01T02:15:51.000Z</time></trkpt><trkpt lat="43.75087" lon="6.6545"><ele>1538</ele><time>2000-01-01T02:16:01.000Z</time></trkpt><trkpt lat="43.75082" lon="6.65457"><time>2000-01-01T02:16:11.000Z</time></trkpt><trkpt lat="43.75075" lon="6.65465"><time>2000-01-01T02:16:21.000Z</time></trkpt><trkpt lat="43.75067" lon="6.65483"><ele>1547</ele><time>2000-01-01T02:16:31.000Z</time></trkpt><trkpt lat="43.75064" lon="6.65492"><time>2000-01-01T02:16:41.000Z</time></trkpt><trkpt lat="43.75062" lon="6.65501"><time>2000-01-01T02:16:51.000Z</time></trkpt><trkpt lat="43.75068" lon="6.65509"><ele>1554</ele><time>2000-01-01T02:17:01.000Z</time></trkpt><trkpt lat="43.75073" lon="6.65519"><time>2000-01-01T02:17:11.000Z</time></trkpt><trkpt lat="43.75071" lon="6.6553"><time>2000-01-01T02:17:21.000Z</time></trkpt><trkpt lat="43.75066" lon="6.65551"><ele>1562</ele><time>2000-01-01T02:17:31.000Z</time></trkpt><trkpt lat="43.75061" lon="6.65576"><time>2000-01-01T02:17:41.000Z</time></trkpt><trkpt lat="43.75059" lon="6.65587"><ele>1566</ele><time>2000-01-01T02:17:51.000Z</time></trkpt><trkpt lat="43.75048" lon="6.65606"><time>2000-01-01T02:18:01.000Z</time></trkpt><trkpt lat="43.75043" lon="6.65612"><ele>1580</ele><time>2000-01-01T02:18:11.000Z</time></trkpt><trkpt lat="43.75035" lon="6.65639"><ele>1584</ele><time>2000-01-01T02:18:21.000Z</time></trkpt><trkpt lat="43.75031" lon="6.65648"><time>2000-01-01T02:18:31.000Z</time></trkpt><trkpt lat="43.75024" lon="6.65672"><ele>1591</ele><time>2000-01-01T02:18:41.000Z</time></trkpt><trkpt lat="43.75015" lon="6.6569"><time>2000-01-01T02:18:51.000Z</time></trkpt><trkpt lat="43.75" lon="6.65704"><ele>1607</ele><time>2000-01-01T02:19:01.000Z</time></trkpt><trkpt lat="43.74987" lon="6.65715"><time>2000-01-01T02:19:11.000Z</time></trkpt><trkpt lat="43.74965" lon="6.65726"><ele>1609</ele><time>2000-01-01T02:19:21.000Z</time></trkpt><trkpt lat="43.74939" lon="6.65738"><ele>1615</ele><time>2000-01-01T02:19:31.000Z</time></trkpt><trkpt lat="43.74915" lon="6.65743"><ele>1619</ele><time>2000-01-01T02:19:41.000Z</time></trkpt><trkpt lat="43.74891" lon="6.65745"><ele>1622</ele><time>2000-01-01T02:19:51.000Z</time></trkpt><trkpt lat="43.74861" lon="6.65752"><ele>1626</ele><time>2000-01-01T02:20:01.000Z</time></trkpt><trkpt lat="43.74845" lon="6.65757"><time>2000-01-01T02:20:11.000Z</time></trkpt><trkpt lat="43.74832" lon="6.65754"><ele>1629</ele><time>2000-01-01T02:20:21.000Z</time></trkpt><trkpt lat="43.74816" lon="6.65754"><time>2000-01-01T02:20:31.000Z</time></trkpt><trkpt lat="43.74795" lon="6.65744"><ele>1629</ele><time>2000-01-01T02:20:41.000Z</time></trkpt><trkpt lat="43.74785" lon="6.65738"><time>2000-01-01T02:20:51.000Z</time></trkpt><trkpt lat="43.74767" lon="6.65727"><ele>1625</ele><time>2000-01-01T02:21:01.000Z</time></trkpt><trkpt lat="43.74728" lon="6.65704"><ele>1624</ele><time>2000-01-01T02:21:11.000Z</time></trkpt><trkpt lat="43.74711" lon="6.65688"><ele>1624</ele><time>2000-01-01T02:21:21.000Z</time></trkpt><trkpt lat="43.74696" lon="6.65674"><time>2000-01-01T02:21:31.000Z</time></trkpt><trkpt lat="43.7468" lon="6.65657"><ele>1624</ele><time>2000-01-01T02:21:41.000Z</time></trkpt><trkpt lat="43.74662" lon="6.6562"><ele>1629</ele><time>2000-01-01T02:21:51.000Z</time></trkpt><trkpt lat="43.74661" lon="6.65615"><time>2000-01-01T02:22:01.000Z</time></trkpt><trkpt lat="43.74648" lon="6.65611"><time>2000-01-01T02:22:11.000Z</time></trkpt><trkpt lat="43.74618" lon="6.65598"><ele>1636</ele><time>2000-01-01T02:22:21.000Z</time></trkpt><trkpt lat="43.74597" lon="6.65584"><ele>1641</ele><time>2000-01-01T02:22:31.000Z</time></trkpt><trkpt lat="43.74576" lon="6.6557"><ele>1641</ele><time>2000-01-01T02:22:41.000Z</time></trkpt><trkpt lat="43.7456" lon="6.65553"><ele>1651</ele><time>2000-01-01T02:22:51.000Z</time></trkpt><trkpt lat="43.74551" lon="6.65538"><time>2000-01-01T02:23:01.000Z</time></trkpt><trkpt lat="43.7454" lon="6.65518"><ele>1656</ele><time>2000-01-01T02:23:11.000Z</time></trkpt><trkpt lat="43.74532" lon="6.65499"><time>2000-01-01T02:23:21.000Z</time></trkpt><trkpt lat="43.7452" lon="6.65484"><ele>1662</ele><time>2000-01-01T02:23:31.000Z</time></trkpt><trkpt lat="43.74505" lon="6.65469"><time>2000-01-01T02:23:41.000Z</time></trkpt><trkpt lat="43.74499" lon="6.65458"><ele>1669</ele><time>2000-01-01T02:23:51.000Z</time></trkpt><trkpt lat="43.74491" lon="6.65443"><time>2000-01-01T02:24:01.000Z</time></trkpt><trkpt lat="43.74485" lon="6.65433"><ele>1674</ele><time>2000-01-01T02:24:11.000Z</time></trkpt><trkpt lat="43.74481" lon="6.65424"><time>2000-01-01T02:24:21.000Z</time></trkpt><trkpt lat="43.74478" lon="6.65411"><time>2000-01-01T02:24:31.000Z</time></trkpt><trkpt lat="43.74478" lon="6.65399"><ele>1676</ele><time>2000-01-01T02:24:41.000Z</time></trkpt><trkpt lat="43.74478" lon="6.65386"><time>2000-01-01T02:24:51.000Z</time></trkpt><trkpt lat="43.74481" lon="6.65373"><ele>1676</ele><time>2000-01-01T02:25:01.000Z</time></trkpt><trkpt lat="43.74486" lon="6.65359"><time>2000-01-01T02:25:11.000Z</time></trkpt><trkpt lat="43.7449" lon="6.6535"><time>2000-01-01T02:25:21.000Z</time></trkpt><trkpt lat="43.74494" lon="6.65342"><ele>1676</ele><time>2000-01-01T02:25:31.000Z</time></trkpt><trkpt lat="43.74489" lon="6.65336"><time>2000-01-01T02:25:41.000Z</time></trkpt><trkpt lat="43.74479" lon="6.6532"><ele>1676</ele><time>2000-01-01T02:25:51.000Z</time></trkpt><trkpt lat="43.74465" lon="6.65297"><ele>1672</ele><time>2000-01-01T02:26:01.000Z</time></trkpt><trkpt lat="43.74452" lon="6.65273"><ele>1667</ele><time>2000-01-01T02:26:11.000Z</time></trkpt><trkpt lat="43.74436" lon="6.65246"><ele>1651</ele><time>2000-01-01T02:26:21.000Z</time></trkpt><trkpt lat="43.74418" lon="6.65215"><ele>1646</ele><time>2000-01-01T02:26:31.000Z</time></trkpt><trkpt lat="43.74393" lon="6.65171"><ele>1644</ele><time>2000-01-01T02:26:41.000Z</time></trkpt><trkpt lat="43.74372" lon="6.65136"><ele>1646</ele><time>2000-01-01T02:26:51.000Z</time></trkpt><trkpt lat="43.74362" lon="6.6512"><time>2000-01-01T02:27:01.000Z</time></trkpt><trkpt lat="43.74335" lon="6.65088"><ele>1649</ele><time>2000-01-01T02:27:11.000Z</time></trkpt><trkpt lat="43.74316" lon="6.65065"><ele>1649</ele><time>2000-01-01T02:27:21.000Z</time></trkpt><trkpt lat="43.74295" lon="6.65039"><ele>1648</ele><time>2000-01-01T02:27:31.000Z</time></trkpt><trkpt lat="43.74276" lon="6.65012"><ele>1648</ele><time>2000-01-01T02:27:41.000Z</time></trkpt><trkpt lat="43.74258" lon="6.64986"><ele>1643</ele><time>2000-01-01T02:27:51.000Z</time></trkpt><trkpt lat="43.74243" lon="6.64964"><ele>1643</ele><time>2000-01-01T02:28:01.000Z</time></trkpt><trkpt lat="43.7422" lon="6.64931"><ele>1632</ele><time>2000-01-01T02:28:11.000Z</time></trkpt><trkpt lat="43.742" lon="6.64903"><ele>1628</ele><time>2000-01-01T02:28:21.000Z</time></trkpt><trkpt lat="43.74174" lon="6.64871"><ele>1622</ele><time>2000-01-01T02:28:31.000Z</time></trkpt><trkpt lat="43.74154" lon="6.64848"><ele>1612</ele><time>2000-01-01T02:28:41.000Z</time></trkpt><trkpt lat="43.74119" lon="6.64805"><ele>1605</ele><time>2000-01-01T02:28:51.000Z</time></trkpt><trkpt lat="43.74097" lon="6.64784"><ele>1596</ele><time>2000-01-01T02:29:01.000Z</time></trkpt><trkpt lat="43.74065" lon="6.64753"><ele>1587</ele><time>2000-01-01T02:29:11.000Z</time></trkpt><trkpt lat="43.74044" lon="6.6473"><ele>1574</ele><time>2000-01-01T02:29:21.000Z</time></trkpt><trkpt lat="43.74023" lon="6.64713"><ele>1574</ele><time>2000-01-01T02:29:31.000Z</time></trkpt><trkpt lat="43.74001" lon="6.64687"><ele>1556</ele><time>2000-01-01T02:29:41.000Z</time></trkpt><trkpt lat="43.7397" lon="6.64659"><ele>1552</ele><time>2000-01-01T02:29:51.000Z</time></trkpt><trkpt lat="43.73965" lon="6.64633"><time>2000-01-01T02:30:01.000Z</time></trkpt><trkpt lat="43.73971" lon="6.64604"><ele>1549</ele><time>2000-01-01T02:30:11.000Z</time></trkpt><trkpt lat="43.73976" lon="6.6457"><ele>1546</ele><time>2000-01-01T02:30:21.000Z</time></trkpt><trkpt lat="43.73987" lon="6.64537"><ele>1533</ele><time>2000-01-01T02:30:31.000Z</time></trkpt><trkpt lat="43.73992" lon="6.64508"><ele>1533</ele><time>2000-01-01T02:30:41.000Z</time></trkpt><trkpt lat="43.73995" lon="6.64485"><time>2000-01-01T02:30:51.000Z</time></trkpt><trkpt lat="43.73999" lon="6.64441"><ele>1528</ele><time>2000-01-01T02:31:01.000Z</time></trkpt><trkpt lat="43.73996" lon="6.64421"><time>2000-01-01T02:31:11.000Z</time></trkpt><trkpt lat="43.73991" lon="6.64407"><ele>1520</ele><time>2000-01-01T02:31:21.000Z</time></trkpt><trkpt lat="43.73987" lon="6.64387"><time>2000-01-01T02:31:31.000Z</time></trkpt><trkpt lat="43.73982" lon="6.64362"><ele>1513</ele><time>2000-01-01T02:31:41.000Z</time></trkpt><trkpt lat="43.73981" lon="6.64356"><time>2000-01-01T02:31:51.000Z</time></trkpt><trkpt lat="43.7398" lon="6.64347"><time>2000-01-01T02:32:01.000Z</time></trkpt><trkpt lat="43.7398" lon="6.6434"><time>2000-01-01T02:32:11.000Z</time></trkpt><trkpt lat="43.73981" lon="6.64334"><ele>1509</ele><time>2000-01-01T02:32:21.000Z</time></trkpt><trkpt lat="43.73981" lon="6.64325"><time>2000-01-01T02:32:31.000Z</time></trkpt><trkpt lat="43.73983" lon="6.64312"><time>2000-01-01T02:32:41.000Z</time></trkpt><trkpt lat="43.73985" lon="6.64299"><ele>1491</ele><time>2000-01-01T02:32:51.000Z</time></trkpt><trkpt lat="43.73986" lon="6.64292"><time>2000-01-01T02:33:01.000Z</time></trkpt><trkpt lat="43.73988" lon="6.64286"><time>2000-01-01T02:33:11.000Z</time></trkpt><trkpt lat="43.7399" lon="6.64278"><time>2000-01-01T02:33:21.000Z</time></trkpt><trkpt lat="43.73992" lon="6.64269"><ele>1487</ele><time>2000-01-01T02:33:31.000Z</time></trkpt><trkpt lat="43.73995" lon="6.64261"><time>2000-01-01T02:33:41.000Z</time></trkpt><trkpt lat="43.74006" lon="6.64248"><ele>1487</ele><time>2000-01-01T02:33:51.000Z</time></trkpt><trkpt lat="43.74007" lon="6.64245"><time>2000-01-01T02:34:01.000Z</time></trkpt><trkpt lat="43.7401" lon="6.64239"><time>2000-01-01T02:34:11.000Z</time></trkpt><trkpt lat="43.74013" lon="6.64235"><time>2000-01-01T02:34:21.000Z</time></trkpt><trkpt lat="43.74015" lon="6.6423"><time>2000-01-01T02:34:31.000Z</time></trkpt><trkpt lat="43.74015" lon="6.64227"><time>2000-01-01T02:34:41.000Z</time></trkpt><trkpt lat="43.74017" lon="6.64223"><ele>1481</ele><time>2000-01-01T02:34:51.000Z</time></trkpt><trkpt lat="43.74019" lon="6.64219"><time>2000-01-01T02:35:01.000Z</time></trkpt><trkpt lat="43.7402" lon="6.64215"><time>2000-01-01T02:35:11.000Z</time></trkpt><trkpt lat="43.7402" lon="6.64212"><time>2000-01-01T02:35:21.000Z</time></trkpt><trkpt lat="43.74025" lon="6.64198"><ele>1478</ele><time>2000-01-01T02:35:31.000Z</time></trkpt><trkpt lat="43.74027" lon="6.64192"><time>2000-01-01T02:35:41.000Z</time></trkpt><trkpt lat="43.74027" lon="6.64189"><time>2000-01-01T02:35:51.000Z</time></trkpt><trkpt lat="43.74027" lon="6.64187"><time>2000-01-01T02:36:01.000Z</time></trkpt><trkpt lat="43.74028" lon="6.64183"><time>2000-01-01T02:36:11.000Z</time></trkpt><trkpt lat="43.74029" lon="6.64179"><time>2000-01-01T02:36:21.000Z</time></trkpt><trkpt lat="43.7403" lon="6.64176"><time>2000-01-01T02:36:31.000Z</time></trkpt><trkpt lat="43.74034" lon="6.64171"><ele>1474</ele><time>2000-01-01T02:36:41.000Z</time></trkpt><trkpt lat="43.74035" lon="6.64168"><time>2000-01-01T02:36:51.000Z</time></trkpt><trkpt lat="43.74037" lon="6.64165"><time>2000-01-01T02:37:01.000Z</time></trkpt><trkpt lat="43.7404" lon="6.64163"><time>2000-01-01T02:37:11.000Z</time></trkpt><trkpt lat="43.74042" lon="6.6416"><time>2000-01-01T02:37:21.000Z</time></trkpt><trkpt lat="43.74043" lon="6.64156"><time>2000-01-01T02:37:31.000Z</time></trkpt><trkpt lat="43.74043" lon="6.64154"><time>2000-01-01T02:37:41.000Z</time></trkpt><trkpt lat="43.74045" lon="6.64152"><time>2000-01-01T02:37:51.000Z</time></trkpt><trkpt lat="43.74048" lon="6.6415"><ele>1470</ele><time>2000-01-01T02:38:01.000Z</time></trkpt><trkpt lat="43.74049" lon="6.64147"><time>2000-01-01T02:38:11.000Z</time></trkpt><trkpt lat="43.74053" lon="6.64141"><time>2000-01-01T02:38:21.000Z</time></trkpt><trkpt lat="43.74055" lon="6.6414"><time>2000-01-01T02:38:31.000Z</time></trkpt><trkpt lat="43.74057" lon="6.64137"><time>2000-01-01T02:38:41.000Z</time></trkpt><trkpt lat="43.74057" lon="6.64133"><time>2000-01-01T02:38:51.000Z</time></trkpt><trkpt lat="43.74059" lon="6.64128"><ele>1462</ele><time>2000-01-01T02:39:01.000Z</time></trkpt><trkpt lat="43.74061" lon="6.64123"><time>2000-01-01T02:39:11.000Z</time></trkpt><trkpt lat="43.74063" lon="6.64119"><time>2000-01-01T02:39:21.000Z</time></trkpt><trkpt lat="43.74071" lon="6.64111"><time>2000-01-01T02:39:31.000Z</time></trkpt><trkpt lat="43.74074" lon="6.64107"><ele>1461</ele><time>2000-01-01T02:39:41.000Z</time></trkpt><trkpt lat="43.74078" lon="6.641"><time>2000-01-01T02:39:51.000Z</time></trkpt><trkpt lat="43.74083" lon="6.64099"><time>2000-01-01T02:40:01.000Z</time></trkpt><trkpt lat="43.74092" lon="6.641"><ele>1457</ele><time>2000-01-01T02:40:11.000Z</time></trkpt><trkpt lat="43.74099" lon="6.64098"><time>2000-01-01T02:40:21.000Z</time></trkpt><trkpt lat="43.74106" lon="6.64098"><time>2000-01-01T02:40:31.000Z</time></trkpt><trkpt lat="43.74111" lon="6.64098"><time>2000-01-01T02:40:41.000Z</time></trkpt><trkpt lat="43.74117" lon="6.64098"><ele>1456</ele><time>2000-01-01T02:40:51.000Z</time></trkpt><trkpt lat="43.7412" lon="6.64099"><time>2000-01-01T02:41:01.000Z</time></trkpt><trkpt lat="43.74126" lon="6.64102"><time>2000-01-01T02:41:11.000Z</time></trkpt><trkpt lat="43.7413" lon="6.64098"><time>2000-01-01T02:41:21.000Z</time></trkpt><trkpt lat="43.74133" lon="6.64098"><time>2000-01-01T02:41:31.000Z</time></trkpt><trkpt lat="43.74138" lon="6.64093"><ele>1453</ele><time>2000-01-01T02:41:41.000Z</time></trkpt><trkpt lat="43.74141" lon="6.6409"><time>2000-01-01T02:41:51.000Z</time></trkpt><trkpt lat="43.74145" lon="6.64086"><time>2000-01-01T02:42:01.000Z</time></trkpt><trkpt lat="43.7415" lon="6.64078"><time>2000-01-01T02:42:11.000Z</time></trkpt><trkpt lat="43.74153" lon="6.6407"><ele>1447</ele><time>2000-01-01T02:42:21.000Z</time></trkpt><trkpt lat="43.74156" lon="6.64069"><time>2000-01-01T02:42:31.000Z</time></trkpt><trkpt lat="43.74159" lon="6.64069"><time>2000-01-01T02:42:41.000Z</time></trkpt><trkpt lat="43.74165" lon="6.64063"><time>2000-01-01T02:42:51.000Z</time></trkpt><trkpt lat="43.74168" lon="6.64062"><time>2000-01-01T02:43:01.000Z</time></trkpt><trkpt lat="43.7418" lon="6.64064"><ele>1443</ele><time>2000-01-01T02:43:11.000Z</time></trkpt><trkpt lat="43.74203" lon="6.64055"><ele>1439</ele><time>2000-01-01T02:43:21.000Z</time></trkpt><trkpt lat="43.74224" lon="6.64041"><ele>1436</ele><time>2000-01-01T02:43:31.000Z</time></trkpt><trkpt lat="43.74239" lon="6.64029"><time>2000-01-01T02:43:41.000Z</time></trkpt><trkpt lat="43.74256" lon="6.64008"><ele>1434</ele><time>2000-01-01T02:43:51.000Z</time></trkpt><trkpt lat="43.74273" lon="6.6399"><ele>1431</ele><time>2000-01-01T02:44:01.000Z</time></trkpt><trkpt lat="43.74298" lon="6.63975"><ele>1431</ele><time>2000-01-01T02:44:11.000Z</time></trkpt><trkpt lat="43.74328" lon="6.63956"><ele>1432</ele><time>2000-01-01T02:44:21.000Z</time></trkpt><trkpt lat="43.74336" lon="6.63959"><time>2000-01-01T02:44:31.000Z</time></trkpt><trkpt lat="43.74353" lon="6.63971"><ele>1443</ele><time>2000-01-01T02:44:41.000Z</time></trkpt><trkpt lat="43.74363" lon="6.63972"><time>2000-01-01T02:44:51.000Z</time></trkpt><trkpt lat="43.74376" lon="6.63965"><ele>1443</ele><time>2000-01-01T02:45:01.000Z</time></trkpt><trkpt lat="43.74388" lon="6.6396"><time>2000-01-01T02:45:11.000Z</time></trkpt><trkpt lat="43.74396" lon="6.63963"><ele>1441</ele><time>2000-01-01T02:45:21.000Z</time></trkpt><trkpt lat="43.74402" lon="6.6396"><time>2000-01-01T02:45:31.000Z</time></trkpt><trkpt lat="43.74406" lon="6.63957"><time>2000-01-01T02:45:41.000Z</time></trkpt><trkpt lat="43.74412" lon="6.63957"><time>2000-01-01T02:45:51.000Z</time></trkpt><trkpt lat="43.74417" lon="6.63953"><ele>1427</ele><time>2000-01-01T02:46:01.000Z</time></trkpt><trkpt lat="43.74421" lon="6.6395"><time>2000-01-01T02:46:11.000Z</time></trkpt><trkpt lat="43.74428" lon="6.63944"><time>2000-01-01T02:46:21.000Z</time></trkpt><trkpt lat="43.74432" lon="6.63943"><time>2000-01-01T02:46:31.000Z</time></trkpt><trkpt lat="43.74434" lon="6.6394"><ele>1427</ele><time>2000-01-01T02:46:41.000Z</time></trkpt><trkpt lat="43.74436" lon="6.63937"><time>2000-01-01T02:46:51.000Z</time></trkpt><trkpt lat="43.74439" lon="6.63935"><time>2000-01-01T02:47:01.000Z</time></trkpt><trkpt lat="43.74441" lon="6.63931"><time>2000-01-01T02:47:11.000Z</time></trkpt><trkpt lat="43.74443" lon="6.63925"><time>2000-01-01T02:47:21.000Z</time></trkpt><trkpt lat="43.74448" lon="6.63922"><ele>1409</ele><time>2000-01-01T02:47:31.000Z</time></trkpt><trkpt lat="43.7445" lon="6.63914"><time>2000-01-01T02:47:41.000Z</time></trkpt><trkpt lat="43.74453" lon="6.63905"><time>2000-01-01T02:47:51.000Z</time></trkpt><trkpt lat="43.74453" lon="6.63904"><time>2000-01-01T02:48:01.000Z</time></trkpt><trkpt lat="43.74459" lon="6.63899"><ele>1404</ele><time>2000-01-01T02:48:11.000Z</time></trkpt><trkpt lat="43.74462" lon="6.63898"><time>2000-01-01T02:48:21.000Z</time></trkpt><trkpt lat="43.74467" lon="6.63896"><time>2000-01-01T02:48:31.000Z</time></trkpt><trkpt lat="43.74471" lon="6.63895"><time>2000-01-01T02:48:41.000Z</time></trkpt><trkpt lat="43.74479" lon="6.63889"><ele>1403</ele><time>2000-01-01T02:48:51.000Z</time></trkpt><trkpt lat="43.74485" lon="6.63885"><time>2000-01-01T02:49:01.000Z</time></trkpt><trkpt lat="43.7449" lon="6.63881"><time>2000-01-01T02:49:11.000Z</time></trkpt><trkpt lat="43.74493" lon="6.63878"><time>2000-01-01T02:49:21.000Z</time></trkpt><trkpt lat="43.74495" lon="6.63872"><ele>1403</ele><time>2000-01-01T02:49:31.000Z</time></trkpt><trkpt lat="43.745" lon="6.6387"><time>2000-01-01T02:49:41.000Z</time></trkpt><trkpt lat="43.74505" lon="6.63872"><time>2000-01-01T02:49:51.000Z</time></trkpt><trkpt lat="43.74511" lon="6.63872"><time>2000-01-01T02:50:01.000Z</time></trkpt><trkpt lat="43.74517" lon="6.63874"><ele>1403</ele><time>2000-01-01T02:50:11.000Z</time></trkpt><trkpt lat="43.74521" lon="6.63874"><time>2000-01-01T02:50:21.000Z</time></trkpt><trkpt lat="43.74525" lon="6.63872"><time>2000-01-01T02:50:31.000Z</time></trkpt><trkpt lat="43.74525" lon="6.63868"><time>2000-01-01T02:50:41.000Z</time></trkpt><trkpt lat="43.74525" lon="6.6386"><time>2000-01-01T02:50:51.000Z</time></trkpt><trkpt lat="43.74525" lon="6.6385"><ele>1402</ele><time>2000-01-01T02:51:01.000Z</time></trkpt><trkpt lat="43.74524" lon="6.63845"><time>2000-01-01T02:51:11.000Z</time></trkpt><trkpt lat="43.74524" lon="6.6384"><time>2000-01-01T02:51:21.000Z</time></trkpt><trkpt lat="43.74519" lon="6.6383"><time>2000-01-01T02:51:31.000Z</time></trkpt><trkpt lat="43.74516" lon="6.63825"><ele>1395</ele><time>2000-01-01T02:51:41.000Z</time></trkpt><trkpt lat="43.74508" lon="6.63814"><time>2000-01-01T02:51:51.000Z</time></trkpt><trkpt lat="43.74496" lon="6.63796"><ele>1380</ele><time>2000-01-01T02:52:01.000Z</time></trkpt><trkpt lat="43.74484" lon="6.63788"><time>2000-01-01T02:52:11.000Z</time></trkpt><trkpt lat="43.74479" lon="6.63788"><time>2000-01-01T02:52:21.000Z</time></trkpt><trkpt lat="43.74473" lon="6.63787"><ele>1377</ele><time>2000-01-01T02:52:31.000Z</time></trkpt><trkpt lat="43.74468" lon="6.63789"><time>2000-01-01T02:52:41.000Z</time></trkpt><trkpt lat="43.74462" lon="6.63789"><time>2000-01-01T02:52:51.000Z</time></trkpt><trkpt lat="43.7445" lon="6.63796"><ele>1372</ele><time>2000-01-01T02:53:01.000Z</time></trkpt><trkpt lat="43.74437" lon="6.638"><time>2000-01-01T02:53:11.000Z</time></trkpt><trkpt lat="43.7442" lon="6.63806"><ele>1372</ele><time>2000-01-01T02:53:21.000Z</time></trkpt><trkpt lat="43.74403" lon="6.6381"><time>2000-01-01T02:53:31.000Z</time></trkpt><trkpt lat="43.74386" lon="6.63814"><ele>1374</ele><time>2000-01-01T02:53:41.000Z</time></trkpt><trkpt lat="43.74378" lon="6.63816"><time>2000-01-01T02:53:51.000Z</time></trkpt><trkpt lat="43.74376" lon="6.63818"><time>2000-01-01T02:54:01.000Z</time></trkpt><trkpt lat="43.74364" lon="6.63826"><ele>1374</ele><time>2000-01-01T02:54:11.000Z</time></trkpt><trkpt lat="43.74354" lon="6.63837"><time>2000-01-01T02:54:21.000Z</time></trkpt><trkpt lat="43.74338" lon="6.63845"><ele>1374</ele><time>2000-01-01T02:54:31.000Z</time></trkpt><trkpt lat="43.74328" lon="6.63846"><time>2000-01-01T02:54:41.000Z</time></trkpt><trkpt lat="43.74318" lon="6.63844"><ele>1378</ele><time>2000-01-01T02:54:51.000Z</time></trkpt><trkpt lat="43.74313" lon="6.63844"><time>2000-01-01T02:55:01.000Z</time></trkpt><trkpt lat="43.74301" lon="6.63841"><time>2000-01-01T02:55:11.000Z</time></trkpt><trkpt lat="43.74287" lon="6.63837"><ele>1377</ele><time>2000-01-01T02:55:21.000Z</time></trkpt><trkpt lat="43.74279" lon="6.63834"><time>2000-01-01T02:55:31.000Z</time></trkpt><trkpt lat="43.74272" lon="6.63832"><time>2000-01-01T02:55:41.000Z</time></trkpt><trkpt lat="43.74254" lon="6.6383"><ele>1377</ele><time>2000-01-01T02:55:51.000Z</time></trkpt><trkpt lat="43.74242" lon="6.63834"><time>2000-01-01T02:56:01.000Z</time></trkpt><trkpt lat="43.74234" lon="6.63838"><ele>1376</ele><time>2000-01-01T02:56:11.000Z</time></trkpt><trkpt lat="43.74211" lon="6.63851"><ele>1376</ele><time>2000-01-01T02:56:21.000Z</time></trkpt><trkpt lat="43.74194" lon="6.63855"><time>2000-01-01T02:56:31.000Z</time></trkpt><trkpt lat="43.74171" lon="6.63859"><ele>1376</ele><time>2000-01-01T02:56:41.000Z</time></trkpt><trkpt lat="43.74161" lon="6.63858"><time>2000-01-01T02:56:51.000Z</time></trkpt><trkpt lat="43.74146" lon="6.63852"><ele>1370</ele><time>2000-01-01T02:57:01.000Z</time></trkpt><trkpt lat="43.74147" lon="6.63848"><time>2000-01-01T02:57:11.000Z</time></trkpt><trkpt lat="43.7415" lon="6.63845"><time>2000-01-01T02:57:21.000Z</time></trkpt><trkpt lat="43.74153" lon="6.63842"><time>2000-01-01T02:57:31.000Z</time></trkpt><trkpt lat="43.74155" lon="6.63838"><time>2000-01-01T02:57:41.000Z</time></trkpt><trkpt lat="43.74158" lon="6.63833"><time>2000-01-01T02:57:51.000Z</time></trkpt><trkpt lat="43.74161" lon="6.6383"><ele>1364</ele><time>2000-01-01T02:58:01.000Z</time></trkpt><trkpt lat="43.74161" lon="6.63822"><time>2000-01-01T02:58:11.000Z</time></trkpt><trkpt lat="43.74158" lon="6.63813"><time>2000-01-01T02:58:21.000Z</time></trkpt><trkpt lat="43.74156" lon="6.63807"><time>2000-01-01T02:58:31.000Z</time></trkpt><trkpt lat="43.74153" lon="6.63801"><ele>1364</ele><time>2000-01-01T02:58:41.000Z</time></trkpt><trkpt lat="43.74149" lon="6.63795"><time>2000-01-01T02:58:51.000Z</time></trkpt><trkpt lat="43.74147" lon="6.63792"><time>2000-01-01T02:59:01.000Z</time></trkpt><trkpt lat="43.74144" lon="6.63785"><time>2000-01-01T02:59:11.000Z</time></trkpt><trkpt lat="43.74141" lon="6.6378"><ele>1358</ele><time>2000-01-01T02:59:21.000Z</time></trkpt><trkpt lat="43.74139" lon="6.63776"><time>2000-01-01T02:59:31.000Z</time></trkpt><trkpt lat="43.74137" lon="6.63775"><time>2000-01-01T02:59:41.000Z</time></trkpt><trkpt lat="43.74134" lon="6.6377"><time>2000-01-01T02:59:51.000Z</time></trkpt><trkpt lat="43.7413" lon="6.63767"><time>2000-01-01T03:00:01.000Z</time></trkpt><trkpt lat="43.74128" lon="6.63765"><time>2000-01-01T03:00:11.000Z</time></trkpt><trkpt lat="43.74127" lon="6.63764"><time>2000-01-01T03:00:21.000Z</time></trkpt><trkpt lat="43.74128" lon="6.63763"><ele>1341</ele><time>2000-01-01T03:00:31.000Z</time></trkpt><trkpt lat="43.7413" lon="6.63761"><time>2000-01-01T03:00:41.000Z</time></trkpt><trkpt lat="43.74132" lon="6.63757"><time>2000-01-01T03:00:51.000Z</time></trkpt><trkpt lat="43.74132" lon="6.63754"><time>2000-01-01T03:01:01.000Z</time></trkpt><trkpt lat="43.74132" lon="6.63751"><time>2000-01-01T03:01:11.000Z</time></trkpt><trkpt lat="43.7413" lon="6.63746"><time>2000-01-01T03:01:21.000Z</time></trkpt><trkpt lat="43.74128" lon="6.63741"><time>2000-01-01T03:01:31.000Z</time></trkpt><trkpt lat="43.74124" lon="6.63735"><ele>1334</ele><time>2000-01-01T03:01:41.000Z</time></trkpt><trkpt lat="43.74119" lon="6.63726"><time>2000-01-01T03:01:51.000Z</time></trkpt><trkpt lat="43.74117" lon="6.63723"><time>2000-01-01T03:02:01.000Z</time></trkpt><trkpt lat="43.74113" lon="6.63719"><time>2000-01-01T03:02:11.000Z</time></trkpt><trkpt lat="43.7411" lon="6.63719"><time>2000-01-01T03:02:21.000Z</time></trkpt><trkpt lat="43.74105" lon="6.63717"><ele>1334</ele><time>2000-01-01T03:02:31.000Z</time></trkpt><trkpt lat="43.74102" lon="6.63717"><time>2000-01-01T03:02:41.000Z</time></trkpt><trkpt lat="43.74101" lon="6.63717"><time>2000-01-01T03:02:51.000Z</time></trkpt><trkpt lat="43.74098" lon="6.63714"><time>2000-01-01T03:03:01.000Z</time></trkpt><trkpt lat="43.74094" lon="6.63711"><time>2000-01-01T03:03:11.000Z</time></trkpt><trkpt lat="43.74091" lon="6.63709"><time>2000-01-01T03:03:21.000Z</time></trkpt><trkpt lat="43.74086" lon="6.63706"><ele>1325</ele><time>2000-01-01T03:03:31.000Z</time></trkpt><trkpt lat="43.7408" lon="6.63702"><time>2000-01-01T03:03:41.000Z</time></trkpt><trkpt lat="43.74076" lon="6.637"><time>2000-01-01T03:03:51.000Z</time></trkpt><trkpt lat="43.74072" lon="6.637"><time>2000-01-01T03:04:01.000Z</time></trkpt><trkpt lat="43.74067" lon="6.63702"><ele>1322</ele><time>2000-01-01T03:04:11.000Z</time></trkpt><trkpt lat="43.74062" lon="6.63702"><time>2000-01-01T03:04:21.000Z</time></trkpt><trkpt lat="43.74054" lon="6.63702"><time>2000-01-01T03:04:31.000Z</time></trkpt><trkpt lat="43.74051" lon="6.637"><time>2000-01-01T03:04:41.000Z</time></trkpt><trkpt lat="43.74045" lon="6.63696"><ele>1319</ele><time>2000-01-01T03:04:51.000Z</time></trkpt><trkpt lat="43.74035" lon="6.63691"><time>2000-01-01T03:05:01.000Z</time></trkpt><trkpt lat="43.7403" lon="6.63688"><time>2000-01-01T03:05:11.000Z</time></trkpt><trkpt lat="43.74023" lon="6.63686"><ele>1313</ele><time>2000-01-01T03:05:21.000Z</time></trkpt><trkpt lat="43.74019" lon="6.63684"><time>2000-01-01T03:05:31.000Z</time></trkpt><trkpt lat="43.74016" lon="6.63683"><time>2000-01-01T03:05:41.000Z</time></trkpt><trkpt lat="43.74015" lon="6.63683"><time>2000-01-01T03:05:51.000Z</time></trkpt><trkpt lat="43.74011" lon="6.63684"><time>2000-01-01T03:06:01.000Z</time></trkpt><trkpt lat="43.74005" lon="6.63684"><time>2000-01-01T03:06:11.000Z</time></trkpt><trkpt lat="43.74002" lon="6.63681"><ele>1307</ele><time>2000-01-01T03:06:21.000Z</time></trkpt><trkpt lat="43.73998" lon="6.63678"><time>2000-01-01T03:06:31.000Z</time></trkpt><trkpt lat="43.73995" lon="6.63675"><time>2000-01-01T03:06:41.000Z</time></trkpt><trkpt lat="43.73992" lon="6.63673"><time>2000-01-01T03:06:51.000Z</time></trkpt><trkpt lat="43.73987" lon="6.63664"><ele>1301</ele><time>2000-01-01T03:07:01.000Z</time></trkpt><trkpt lat="43.73985" lon="6.6366"><time>2000-01-01T03:07:11.000Z</time></trkpt><trkpt lat="43.73983" lon="6.63654"><time>2000-01-01T03:07:21.000Z</time></trkpt><trkpt lat="43.73978" lon="6.63646"><time>2000-01-01T03:07:31.000Z</time></trkpt><trkpt lat="43.73972" lon="6.63643"><ele>1283</ele><time>2000-01-01T03:07:41.000Z</time></trkpt><trkpt lat="43.73964" lon="6.63639"><time>2000-01-01T03:07:51.000Z</time></trkpt><trkpt lat="43.73955" lon="6.63636"><time>2000-01-01T03:08:01.000Z</time></trkpt><trkpt lat="43.7395" lon="6.63633"><ele>1281</ele><time>2000-01-01T03:08:11.000Z</time></trkpt><trkpt lat="43.7394" lon="6.63631"><time>2000-01-01T03:08:21.000Z</time></trkpt><trkpt lat="43.73935" lon="6.6363"><time>2000-01-01T03:08:31.000Z</time></trkpt><trkpt lat="43.7393" lon="6.63629"><ele>1277</ele><time>2000-01-01T03:08:41.000Z</time></trkpt><trkpt lat="43.73917" lon="6.63633"><time>2000-01-01T03:08:51.000Z</time></trkpt><trkpt lat="43.73911" lon="6.63634"><time>2000-01-01T03:09:01.000Z</time></trkpt><trkpt lat="43.73905" lon="6.63633"><ele>1274</ele><time>2000-01-01T03:09:11.000Z</time></trkpt><trkpt lat="43.739" lon="6.63631"><time>2000-01-01T03:09:21.000Z</time></trkpt><trkpt lat="43.73889" lon="6.63631"><time>2000-01-01T03:09:31.000Z</time></trkpt><trkpt lat="43.73879" lon="6.63628"><ele>1265</ele><time>2000-01-01T03:09:41.000Z</time></trkpt><trkpt lat="43.73869" lon="6.63626"><time>2000-01-01T03:09:51.000Z</time></trkpt><trkpt lat="43.73865" lon="6.63627"><time>2000-01-01T03:10:01.000Z</time></trkpt><trkpt lat="43.7386" lon="6.63629"><time>2000-01-01T03:10:11.000Z</time></trkpt><trkpt lat="43.73854" lon="6.63629"><ele>1265</ele><time>2000-01-01T03:10:21.000Z</time></trkpt><trkpt lat="43.73848" lon="6.6363"><time>2000-01-01T03:10:31.000Z</time></trkpt><trkpt lat="43.73845" lon="6.63632"><time>2000-01-01T03:10:41.000Z</time></trkpt><trkpt lat="43.73839" lon="6.63627"><time>2000-01-01T03:10:51.000Z</time></trkpt><trkpt lat="43.73825" lon="6.63627"><ele>1252</ele><time>2000-01-01T03:11:01.000Z</time></trkpt><trkpt lat="43.73817" lon="6.63625"><time>2000-01-01T03:11:11.000Z</time></trkpt><trkpt lat="43.73809" lon="6.63624"><time>2000-01-01T03:11:21.000Z</time></trkpt><trkpt lat="43.73803" lon="6.63622"><ele>1248</ele><time>2000-01-01T03:11:31.000Z</time></trkpt><trkpt lat="43.73797" lon="6.6362"><time>2000-01-01T03:11:41.000Z</time></trkpt><trkpt lat="43.73788" lon="6.63622"><time>2000-01-01T03:11:51.000Z</time></trkpt><trkpt lat="43.73778" lon="6.63619"><ele>1241</ele><time>2000-01-01T03:12:01.000Z</time></trkpt><trkpt lat="43.73776" lon="6.63618"><time>2000-01-01T03:12:11.000Z</time></trkpt><trkpt lat="43.7377" lon="6.63618"><time>2000-01-01T03:12:21.000Z</time></trkpt><trkpt lat="43.73755" lon="6.63613"><ele>1237</ele><time>2000-01-01T03:12:31.000Z</time></trkpt><trkpt lat="43.73752" lon="6.63612"><time>2000-01-01T03:12:41.000Z</time></trkpt><trkpt lat="43.73745" lon="6.6361"><time>2000-01-01T03:12:51.000Z</time></trkpt><trkpt lat="43.7374" lon="6.63607"><time>2000-01-01T03:13:01.000Z</time></trkpt><trkpt lat="43.7374" lon="6.63604"><time>2000-01-01T03:13:11.000Z</time></trkpt><trkpt lat="43.73741" lon="6.63601"><ele>1237</ele><time>2000-01-01T03:13:21.000Z</time></trkpt><trkpt lat="43.73745" lon="6.63596"><time>2000-01-01T03:13:31.000Z</time></trkpt><trkpt lat="43.73745" lon="6.63591"><time>2000-01-01T03:13:41.000Z</time></trkpt><trkpt lat="43.73748" lon="6.63587"><time>2000-01-01T03:13:51.000Z</time></trkpt><trkpt lat="43.7375" lon="6.63583"><time>2000-01-01T03:14:01.000Z</time></trkpt><trkpt lat="43.73755" lon="6.63579"><ele>1235</ele><time>2000-01-01T03:14:11.000Z</time></trkpt><trkpt lat="43.73761" lon="6.63574"><time>2000-01-01T03:14:21.000Z</time></trkpt><trkpt lat="43.73765" lon="6.63572"><time>2000-01-01T03:14:31.000Z</time></trkpt><trkpt lat="43.73769" lon="6.63567"><time>2000-01-01T03:14:41.000Z</time></trkpt><trkpt lat="43.73773" lon="6.63562"><ele>1225</ele><time>2000-01-01T03:14:51.000Z</time></trkpt><trkpt lat="43.73775" lon="6.63559"><time>2000-01-01T03:15:01.000Z</time></trkpt><trkpt lat="43.73778" lon="6.63558"><time>2000-01-01T03:15:11.000Z</time></trkpt><trkpt lat="43.7378" lon="6.63556"><time>2000-01-01T03:15:21.000Z</time></trkpt><trkpt lat="43.73782" lon="6.63551"><time>2000-01-01T03:15:31.000Z</time></trkpt><trkpt lat="43.73778" lon="6.63548"><time>2000-01-01T03:15:41.000Z</time></trkpt><trkpt lat="43.73768" lon="6.63541"><ele>1217</ele><time>2000-01-01T03:15:51.000Z</time></trkpt><trkpt lat="43.73761" lon="6.63535"><time>2000-01-01T03:16:01.000Z</time></trkpt><trkpt lat="43.73762" lon="6.63533"><time>2000-01-01T03:16:11.000Z</time></trkpt><trkpt lat="43.73765" lon="6.63532"><time>2000-01-01T03:16:21.000Z</time></trkpt><trkpt lat="43.73772" lon="6.63525"><ele>1217</ele><time>2000-01-01T03:16:31.000Z</time></trkpt><trkpt lat="43.73777" lon="6.63523"><time>2000-01-01T03:16:41.000Z</time></trkpt><trkpt lat="43.73784" lon="6.63516"><time>2000-01-01T03:16:51.000Z</time></trkpt><trkpt lat="43.73787" lon="6.63514"><time>2000-01-01T03:17:01.000Z</time></trkpt><trkpt lat="43.73791" lon="6.63511"><ele>1214</ele><time>2000-01-01T03:17:11.000Z</time></trkpt><trkpt lat="43.73795" lon="6.63507"><time>2000-01-01T03:17:21.000Z</time></trkpt><trkpt lat="43.73803" lon="6.63503"><time>2000-01-01T03:17:31.000Z</time></trkpt><trkpt lat="43.73813" lon="6.63496"><ele>1212</ele><time>2000-01-01T03:17:41.000Z</time></trkpt><trkpt lat="43.73822" lon="6.63491"><time>2000-01-01T03:17:51.000Z</time></trkpt><trkpt lat="43.73828" lon="6.63487"><time>2000-01-01T03:18:01.000Z</time></trkpt><trkpt lat="43.73835" lon="6.63485"><ele>1207</ele><time>2000-01-01T03:18:11.000Z</time></trkpt><trkpt lat="43.73843" lon="6.63483"><time>2000-01-01T03:18:21.000Z</time></trkpt><trkpt lat="43.73847" lon="6.63481"><time>2000-01-01T03:18:31.000Z</time></trkpt><trkpt lat="43.73851" lon="6.63482"><time>2000-01-01T03:18:41.000Z</time></trkpt><trkpt lat="43.73858" lon="6.6348"><ele>1206</ele><time>2000-01-01T03:18:51.000Z</time></trkpt><trkpt lat="43.73861" lon="6.63478"><time>2000-01-01T03:19:01.000Z</time></trkpt><trkpt lat="43.73871" lon="6.63475"><time>2000-01-01T03:19:11.000Z</time></trkpt><trkpt lat="43.73873" lon="6.63474"><time>2000-01-01T03:19:21.000Z</time></trkpt><trkpt lat="43.73878" lon="6.63474"><ele>1206</ele><time>2000-01-01T03:19:31.000Z</time></trkpt><trkpt lat="43.73881" lon="6.63472"><time>2000-01-01T03:19:41.000Z</time></trkpt><trkpt lat="43.73888" lon="6.63471"><time>2000-01-01T03:19:51.000Z</time></trkpt><trkpt lat="43.73894" lon="6.63469"><time>2000-01-01T03:20:01.000Z</time></trkpt><trkpt lat="43.73898" lon="6.63466"><ele>1203</ele><time>2000-01-01T03:20:11.000Z</time></trkpt><trkpt lat="43.73906" lon="6.63465"><time>2000-01-01T03:20:21.000Z</time></trkpt><trkpt lat="43.7391" lon="6.63463"><time>2000-01-01T03:20:31.000Z</time></trkpt><trkpt lat="43.73915" lon="6.63458"><time>2000-01-01T03:20:41.000Z</time></trkpt><trkpt lat="43.73919" lon="6.63456"><ele>1187</ele><time>2000-01-01T03:20:51.000Z</time></trkpt><trkpt lat="43.73924" lon="6.63456"><time>2000-01-01T03:21:01.000Z</time></trkpt><trkpt lat="43.73922" lon="6.6345"><time>2000-01-01T03:21:11.000Z</time></trkpt><trkpt lat="43.73916" lon="6.63445"><time>2000-01-01T03:21:21.000Z</time></trkpt><trkpt lat="43.73912" lon="6.6344"><ele>1177</ele><time>2000-01-01T03:21:31.000Z</time></trkpt><trkpt lat="43.7391" lon="6.63438"><time>2000-01-01T03:21:41.000Z</time></trkpt><trkpt lat="43.73907" lon="6.63436"><time>2000-01-01T03:21:51.000Z</time></trkpt><trkpt lat="43.73905" lon="6.63433"><time>2000-01-01T03:22:01.000Z</time></trkpt><trkpt lat="43.73903" lon="6.63433"><time>2000-01-01T03:22:11.000Z</time></trkpt><trkpt lat="43.73895" lon="6.63425"><ele>1173</ele><time>2000-01-01T03:22:21.000Z</time></trkpt><trkpt lat="43.73893" lon="6.63422"><time>2000-01-01T03:22:31.000Z</time></trkpt><trkpt lat="43.73881" lon="6.63415"><time>2000-01-01T03:22:41.000Z</time></trkpt><trkpt lat="43.73864" lon="6.63406"><ele>1165</ele><time>2000-01-01T03:22:51.000Z</time></trkpt><trkpt lat="43.73849" lon="6.63399"><time>2000-01-01T03:23:01.000Z</time></trkpt><trkpt lat="43.73839" lon="6.6339"><ele>1158</ele><time>2000-01-01T03:23:11.000Z</time></trkpt><trkpt lat="43.73833" lon="6.63385"><time>2000-01-01T03:23:21.000Z</time></trkpt><trkpt lat="43.73825" lon="6.63379"><time>2000-01-01T03:23:31.000Z</time></trkpt><trkpt lat="43.7382" lon="6.63373"><ele>1148</ele><time>2000-01-01T03:23:41.000Z</time></trkpt><trkpt lat="43.73811" lon="6.6336"><time>2000-01-01T03:23:51.000Z</time></trkpt><trkpt lat="43.73809" lon="6.63357"><time>2000-01-01T03:24:01.000Z</time></trkpt><trkpt lat="43.73805" lon="6.63357"><ele>1148</ele><time>2000-01-01T03:24:11.000Z</time></trkpt><trkpt lat="43.738" lon="6.63359"><time>2000-01-01T03:24:21.000Z</time></trkpt><trkpt lat="43.73798" lon="6.63359"><time>2000-01-01T03:24:31.000Z</time></trkpt><trkpt lat="43.73792" lon="6.63354"><time>2000-01-01T03:24:41.000Z</time></trkpt><trkpt lat="43.7379" lon="6.63346"><time>2000-01-01T03:24:51.000Z</time></trkpt><trkpt lat="43.73789" lon="6.63338"><ele>1134</ele><time>2000-01-01T03:25:01.000Z</time></trkpt><trkpt lat="43.73789" lon="6.63334"><time>2000-01-01T03:25:11.000Z</time></trkpt><trkpt lat="43.7379" lon="6.63329"><time>2000-01-01T03:25:21.000Z</time></trkpt><trkpt lat="43.73792" lon="6.63325"><time>2000-01-01T03:25:31.000Z</time></trkpt><trkpt lat="43.73793" lon="6.63322"><time>2000-01-01T03:25:41.000Z</time></trkpt><trkpt lat="43.73791" lon="6.63317"><time>2000-01-01T03:25:51.000Z</time></trkpt><trkpt lat="43.7379" lon="6.63314"><time>2000-01-01T03:26:01.000Z</time></trkpt><trkpt lat="43.73788" lon="6.63311"><ele>1125</ele><time>2000-01-01T03:26:11.000Z</time></trkpt><trkpt lat="43.73786" lon="6.63308"><time>2000-01-01T03:26:21.000Z</time></trkpt><trkpt lat="43.73784" lon="6.63306"><time>2000-01-01T03:26:31.000Z</time></trkpt><trkpt lat="43.73782" lon="6.63304"><time>2000-01-01T03:26:41.000Z</time></trkpt><trkpt lat="43.7378" lon="6.63303"><time>2000-01-01T03:26:51.000Z</time></trkpt><trkpt lat="43.73777" lon="6.63301"><time>2000-01-01T03:27:01.000Z</time></trkpt><trkpt lat="43.73774" lon="6.63298"><time>2000-01-01T03:27:11.000Z</time></trkpt><trkpt lat="43.73771" lon="6.63297"><ele>1116</ele><time>2000-01-01T03:27:21.000Z</time></trkpt><trkpt lat="43.73769" lon="6.63296"><time>2000-01-01T03:27:31.000Z</time></trkpt><trkpt lat="43.73767" lon="6.63292"><time>2000-01-01T03:27:41.000Z</time></trkpt><trkpt lat="43.73765" lon="6.63288"><time>2000-01-01T03:27:51.000Z</time></trkpt><trkpt lat="43.73762" lon="6.63284"><time>2000-01-01T03:28:01.000Z</time></trkpt><trkpt lat="43.73758" lon="6.6328"><time>2000-01-01T03:28:11.000Z</time></trkpt><trkpt lat="43.73755" lon="6.63276"><ele>1112</ele><time>2000-01-01T03:28:21.000Z</time></trkpt><trkpt lat="43.73757" lon="6.63269"><time>2000-01-01T03:28:31.000Z</time></trkpt><trkpt lat="43.73762" lon="6.63265"><time>2000-01-01T03:28:41.000Z</time></trkpt><trkpt lat="43.73764" lon="6.63261"><time>2000-01-01T03:28:51.000Z</time></trkpt><trkpt lat="43.73765" lon="6.63258"><time>2000-01-01T03:29:01.000Z</time></trkpt><trkpt lat="43.73765" lon="6.63255"><time>2000-01-01T03:29:11.000Z</time></trkpt><trkpt lat="43.73763" lon="6.63253"><ele>1106</ele><time>2000-01-01T03:29:21.000Z</time></trkpt><trkpt lat="43.73762" lon="6.63251"><time>2000-01-01T03:29:31.000Z</time></trkpt><trkpt lat="43.7376" lon="6.6325"><time>2000-01-01T03:29:41.000Z</time></trkpt><trkpt lat="43.73754" lon="6.63248"><time>2000-01-01T03:29:51.000Z</time></trkpt><trkpt lat="43.73748" lon="6.63246"><time>2000-01-01T03:30:01.000Z</time></trkpt><trkpt lat="43.73744" lon="6.63241"><ele>1106</ele><time>2000-01-01T03:30:11.000Z</time></trkpt><trkpt lat="43.73741" lon="6.63236"><time>2000-01-01T03:30:21.000Z</time></trkpt><trkpt lat="43.7374" lon="6.63235"><time>2000-01-01T03:30:31.000Z</time></trkpt><trkpt lat="43.73732" lon="6.63234"><time>2000-01-01T03:30:41.000Z</time></trkpt><trkpt lat="43.7373" lon="6.63234"><time>2000-01-01T03:30:51.000Z</time></trkpt><trkpt lat="43.73726" lon="6.63233"><ele>1092</ele><time>2000-01-01T03:31:01.000Z</time></trkpt><trkpt lat="43.73723" lon="6.63232"><time>2000-01-01T03:31:11.000Z</time></trkpt><trkpt lat="43.73719" lon="6.63229"><time>2000-01-01T03:31:21.000Z</time></trkpt><trkpt lat="43.73716" lon="6.63228"><time>2000-01-01T03:31:31.000Z</time></trkpt><trkpt lat="43.7371" lon="6.63227"><time>2000-01-01T03:31:41.000Z</time></trkpt><trkpt lat="43.73703" lon="6.63228"><ele>1090</ele><time>2000-01-01T03:31:51.000Z</time></trkpt><trkpt lat="43.73698" lon="6.63229"><time>2000-01-01T03:32:01.000Z</time></trkpt><trkpt lat="43.73695" lon="6.63231"><time>2000-01-01T03:32:11.000Z</time></trkpt><trkpt lat="43.73694" lon="6.63232"><time>2000-01-01T03:32:21.000Z</time></trkpt><trkpt lat="43.73692" lon="6.63236"><time>2000-01-01T03:32:31.000Z</time></trkpt><trkpt lat="43.7369" lon="6.63241"><time>2000-01-01T03:32:41.000Z</time></trkpt><trkpt lat="43.73687" lon="6.63243"><ele>1089</ele><time>2000-01-01T03:32:51.000Z</time></trkpt><trkpt lat="43.73681" lon="6.63241"><time>2000-01-01T03:33:01.000Z</time></trkpt><trkpt lat="43.73676" lon="6.63238"><time>2000-01-01T03:33:11.000Z</time></trkpt><trkpt lat="43.73671" lon="6.63237"><time>2000-01-01T03:33:21.000Z</time></trkpt><trkpt lat="43.73662" lon="6.63236"><ele>1081</ele><time>2000-01-01T03:33:31.000Z</time></trkpt><trkpt lat="43.73653" lon="6.63235"><time>2000-01-01T03:33:41.000Z</time></trkpt><trkpt lat="43.73645" lon="6.63235"><time>2000-01-01T03:33:51.000Z</time></trkpt><trkpt lat="43.73636" lon="6.63236"><ele>1074</ele><time>2000-01-01T03:34:01.000Z</time></trkpt><trkpt lat="43.73626" lon="6.63237"><time>2000-01-01T03:34:11.000Z</time></trkpt><trkpt lat="43.73615" lon="6.63238"><ele>1068</ele><time>2000-01-01T03:34:21.000Z</time></trkpt><trkpt lat="43.73602" lon="6.6324"><time>2000-01-01T03:34:31.000Z</time></trkpt><trkpt lat="43.7359" lon="6.63242"><ele>1065</ele><time>2000-01-01T03:34:41.000Z</time></trkpt><trkpt lat="43.7358" lon="6.63243"><time>2000-01-01T03:34:51.000Z</time></trkpt><trkpt lat="43.73574" lon="6.63242"><time>2000-01-01T03:35:01.000Z</time></trkpt><trkpt lat="43.7357" lon="6.6324"><ele>1063</ele><time>2000-01-01T03:35:11.000Z</time></trkpt><trkpt lat="43.73564" lon="6.63236"><time>2000-01-01T03:35:21.000Z</time></trkpt><trkpt lat="43.73561" lon="6.63232"><time>2000-01-01T03:35:31.000Z</time></trkpt><trkpt lat="43.73557" lon="6.63228"><time>2000-01-01T03:35:41.000Z</time></trkpt><trkpt lat="43.73554" lon="6.63222"><ele>1057</ele><time>2000-01-01T03:35:51.000Z</time></trkpt><trkpt lat="43.73552" lon="6.63219"><time>2000-01-01T03:36:01.000Z</time></trkpt><trkpt lat="43.73551" lon="6.63214"><time>2000-01-01T03:36:11.000Z</time></trkpt><trkpt lat="43.7355" lon="6.63208"><time>2000-01-01T03:36:21.000Z</time></trkpt><trkpt lat="43.73547" lon="6.63201"><time>2000-01-01T03:36:31.000Z</time></trkpt><trkpt lat="43.73546" lon="6.63198"><time>2000-01-01T03:36:41.000Z</time></trkpt><trkpt lat="43.73545" lon="6.63194"><ele>1050</ele><time>2000-01-01T03:36:51.000Z</time></trkpt><trkpt lat="43.73538" lon="6.63187"><time>2000-01-01T03:37:01.000Z</time></trkpt><trkpt lat="43.73537" lon="6.63185"><time>2000-01-01T03:37:11.000Z</time></trkpt><trkpt lat="43.73534" lon="6.63185"><time>2000-01-01T03:37:21.000Z</time></trkpt><trkpt lat="43.73533" lon="6.6318"><time>2000-01-01T03:37:31.000Z</time></trkpt><trkpt lat="43.73531" lon="6.6317"><ele>1046</ele><time>2000-01-01T03:37:41.000Z</time></trkpt><trkpt lat="43.73528" lon="6.63159"><time>2000-01-01T03:37:51.000Z</time></trkpt><trkpt lat="43.73525" lon="6.63145"><time>2000-01-01T03:38:01.000Z</time></trkpt><trkpt lat="43.73523" lon="6.63139"><ele>1041</ele><time>2000-01-01T03:38:11.000Z</time></trkpt><trkpt lat="43.7352" lon="6.63132"><time>2000-01-01T03:38:21.000Z</time></trkpt><trkpt lat="43.73518" lon="6.63126"><time>2000-01-01T03:38:31.000Z</time></trkpt><trkpt lat="43.73517" lon="6.63122"><time>2000-01-01T03:38:41.000Z</time></trkpt><trkpt lat="43.73515" lon="6.63111"><ele>1035</ele><time>2000-01-01T03:38:51.000Z</time></trkpt><trkpt lat="43.73514" lon="6.63105"><time>2000-01-01T03:39:01.000Z</time></trkpt><trkpt lat="43.73512" lon="6.631"><time>2000-01-01T03:39:11.000Z</time></trkpt><trkpt lat="43.7351" lon="6.63097"><time>2000-01-01T03:39:21.000Z</time></trkpt><trkpt lat="43.73507" lon="6.63091"><time>2000-01-01T03:39:31.000Z</time></trkpt><trkpt lat="43.73503" lon="6.63083"><ele>1031</ele><time>2000-01-01T03:39:41.000Z</time></trkpt><trkpt lat="43.735" lon="6.63077"><time>2000-01-01T03:39:51.000Z</time></trkpt><trkpt lat="43.73485" lon="6.63056"><ele>1023</ele><time>2000-01-01T03:40:01.000Z</time></trkpt><trkpt lat="43.73483" lon="6.6305"><time>2000-01-01T03:40:11.000Z</time></trkpt><trkpt lat="43.7348" lon="6.63042"><time>2000-01-01T03:40:21.000Z</time></trkpt><trkpt lat="43.73479" lon="6.63039"><time>2000-01-01T03:40:31.000Z</time></trkpt><trkpt lat="43.73477" lon="6.63036"><time>2000-01-01T03:40:41.000Z</time></trkpt><trkpt lat="43.73471" lon="6.63027"><ele>1021</ele><time>2000-01-01T03:40:51.000Z</time></trkpt><trkpt lat="43.73469" lon="6.63024"><time>2000-01-01T03:41:01.000Z</time></trkpt><trkpt lat="43.73467" lon="6.63022"><time>2000-01-01T03:41:11.000Z</time></trkpt><trkpt lat="43.73464" lon="6.6302"><time>2000-01-01T03:41:21.000Z</time></trkpt><trkpt lat="43.73459" lon="6.63017"><time>2000-01-01T03:41:31.000Z</time></trkpt><trkpt lat="43.73454" lon="6.63014"><time>2000-01-01T03:41:41.000Z</time></trkpt><trkpt lat="43.73437" lon="6.6301"><ele>1014</ele><time>2000-01-01T03:41:51.000Z</time></trkpt><trkpt lat="43.73427" lon="6.63008"><time>2000-01-01T03:42:01.000Z</time></trkpt><trkpt lat="43.73425" lon="6.63006"><time>2000-01-01T03:42:11.000Z</time></trkpt><trkpt lat="43.73424" lon="6.63001"><time>2000-01-01T03:42:21.000Z</time></trkpt><trkpt lat="43.73423" lon="6.62993"><ele>1014</ele><time>2000-01-01T03:42:31.000Z</time></trkpt><trkpt lat="43.73423" lon="6.62982"><time>2000-01-01T03:42:41.000Z</time></trkpt><trkpt lat="43.73424" lon="6.6296"><ele>1013</ele><time>2000-01-01T03:42:51.000Z</time></trkpt><trkpt lat="43.73423" lon="6.62955"><time>2000-01-01T03:43:01.000Z</time></trkpt><trkpt lat="43.73422" lon="6.62949"><time>2000-01-01T03:43:11.000Z</time></trkpt><trkpt lat="43.73421" lon="6.62941"><time>2000-01-01T03:43:21.000Z</time></trkpt><trkpt lat="43.7342" lon="6.62939"><time>2000-01-01T03:43:31.000Z</time></trkpt><trkpt lat="43.73414" lon="6.62936"><ele>1012</ele><time>2000-01-01T03:43:41.000Z</time></trkpt><trkpt lat="43.73409" lon="6.62932"><time>2000-01-01T03:43:51.000Z</time></trkpt><trkpt lat="43.73403" lon="6.6292"><time>2000-01-01T03:44:01.000Z</time></trkpt><trkpt lat="43.734" lon="6.62914"><ele>1012</ele><time>2000-01-01T03:44:11.000Z</time></trkpt><trkpt lat="43.73399" lon="6.6291"><time>2000-01-01T03:44:21.000Z</time></trkpt><trkpt lat="43.73399" lon="6.62906"><time>2000-01-01T03:44:31.000Z</time></trkpt><trkpt lat="43.734" lon="6.62895"><time>2000-01-01T03:44:41.000Z</time></trkpt><trkpt lat="43.73399" lon="6.6289"><time>2000-01-01T03:44:51.000Z</time></trkpt><trkpt lat="43.73398" lon="6.62883"><ele>1011</ele><time>2000-01-01T03:45:01.000Z</time></trkpt><trkpt lat="43.73398" lon="6.62874"><time>2000-01-01T03:45:11.000Z</time></trkpt><trkpt lat="43.73397" lon="6.62869"><time>2000-01-01T03:45:21.000Z</time></trkpt><trkpt lat="43.73397" lon="6.62852"><ele>1011</ele><time>2000-01-01T03:45:31.000Z</time></trkpt><trkpt lat="43.73396" lon="6.6284"><time>2000-01-01T03:45:41.000Z</time></trkpt><trkpt lat="43.73396" lon="6.62835"><time>2000-01-01T03:45:51.000Z</time></trkpt><trkpt lat="43.73395" lon="6.6283"><time>2000-01-01T03:46:01.000Z</time></trkpt><trkpt lat="43.73394" lon="6.62822"><ele>1010</ele><time>2000-01-01T03:46:11.000Z</time></trkpt><trkpt lat="43.73392" lon="6.62814"><time>2000-01-01T03:46:21.000Z</time></trkpt><trkpt lat="43.73388" lon="6.628"><time>2000-01-01T03:46:31.000Z</time></trkpt><trkpt lat="43.73384" lon="6.62785"><ele>1010</ele><time>2000-01-01T03:46:41.000Z</time></trkpt><trkpt lat="43.73382" lon="6.62776"><time>2000-01-01T03:46:51.000Z</time></trkpt><trkpt lat="43.73379" lon="6.62765"><time>2000-01-01T03:47:01.000Z</time></trkpt><trkpt lat="43.73375" lon="6.62751"><ele>1009</ele><time>2000-01-01T03:47:11.000Z</time></trkpt><trkpt lat="43.73371" lon="6.62735"><time>2000-01-01T03:47:21.000Z</time></trkpt><trkpt lat="43.73369" lon="6.62724"><ele>1008</ele><time>2000-01-01T03:47:31.000Z</time></trkpt><trkpt lat="43.73367" lon="6.6272"><time>2000-01-01T03:47:41.000Z</time></trkpt><trkpt lat="43.73367" lon="6.62715"><time>2000-01-01T03:47:51.000Z</time></trkpt><trkpt lat="43.73367" lon="6.62707"><time>2000-01-01T03:48:01.000Z</time></trkpt><trkpt lat="43.73367" lon="6.62703"><time>2000-01-01T03:48:11.000Z</time></trkpt><trkpt lat="43.73367" lon="6.627"><time>2000-01-01T03:48:21.000Z</time></trkpt><trkpt lat="43.73373" lon="6.62678"><ele>1007</ele><time>2000-01-01T03:48:31.000Z</time></trkpt><trkpt lat="43.73374" lon="6.62671"><time>2000-01-01T03:48:41.000Z</time></trkpt><trkpt lat="43.73374" lon="6.62668"><time>2000-01-01T03:48:51.000Z</time></trkpt><trkpt lat="43.73373" lon="6.62664"><time>2000-01-01T03:49:01.000Z</time></trkpt><trkpt lat="43.73372" lon="6.6266"><time>2000-01-01T03:49:11.000Z</time></trkpt><trkpt lat="43.7337" lon="6.62656"><time>2000-01-01T03:49:21.000Z</time></trkpt><trkpt lat="43.73369" lon="6.6265"><ele>1006</ele><time>2000-01-01T03:49:31.000Z</time></trkpt><trkpt lat="43.73378" lon="6.6264"><time>2000-01-01T03:49:41.000Z</time></trkpt><trkpt lat="43.73398" lon="6.62599"><ele>1006</ele><time>2000-01-01T03:49:51.000Z</time></trkpt><trkpt lat="43.73394" lon="6.62583"><time>2000-01-01T03:50:01.000Z</time></trkpt><trkpt lat="43.73387" lon="6.6256"><ele>1004</ele><time>2000-01-01T03:50:11.000Z</time></trkpt><trkpt lat="43.73379" lon="6.62532"><ele>996</ele><time>2000-01-01T03:50:21.000Z</time></trkpt><trkpt lat="43.73379" lon="6.62519"><time>2000-01-01T03:50:31.000Z</time></trkpt><trkpt lat="43.73401" lon="6.62504"><ele>996</ele><time>2000-01-01T03:50:41.000Z</time></trkpt><trkpt lat="43.73421" lon="6.62492"><ele>995</ele><time>2000-01-01T03:50:51.000Z</time></trkpt><trkpt lat="43.73426" lon="6.62466"><time>2000-01-01T03:51:01.000Z</time></trkpt><trkpt lat="43.73429" lon="6.62444"><ele>995</ele><time>2000-01-01T03:51:11.000Z</time></trkpt><trkpt lat="43.73429" lon="6.62438"><time>2000-01-01T03:51:21.000Z</time></trkpt><trkpt lat="43.73424" lon="6.62433"><time>2000-01-01T03:51:31.000Z</time></trkpt><trkpt lat="43.7341" lon="6.62429"><ele>992</ele><time>2000-01-01T03:51:41.000Z</time></trkpt><trkpt lat="43.73397" lon="6.62416"><time>2000-01-01T03:51:51.000Z</time></trkpt><trkpt lat="43.73391" lon="6.62413"><ele>991</ele><time>2000-01-01T03:52:01.000Z</time></trkpt><trkpt lat="43.73378" lon="6.62413"><time>2000-01-01T03:52:11.000Z</time></trkpt><trkpt lat="43.73367" lon="6.62429"><ele>985</ele><time>2000-01-01T03:52:21.000Z</time></trkpt><trkpt lat="43.73346" lon="6.62488"><ele>984</ele><time>2000-01-01T03:52:31.000Z</time></trkpt><trkpt lat="43.73341" lon="6.625"><time>2000-01-01T03:52:41.000Z</time></trkpt><trkpt lat="43.73332" lon="6.62501"><time>2000-01-01T03:52:51.000Z</time></trkpt><trkpt lat="43.73328" lon="6.62493"><ele>983</ele><time>2000-01-01T03:53:01.000Z</time></trkpt><trkpt lat="43.73321" lon="6.62479"><time>2000-01-01T03:53:11.000Z</time></trkpt><trkpt lat="43.73313" lon="6.62463"><ele>977</ele><time>2000-01-01T03:53:21.000Z</time></trkpt><trkpt lat="43.73305" lon="6.62443"><time>2000-01-01T03:53:31.000Z</time></trkpt><trkpt lat="43.73303" lon="6.62437"><ele>972</ele><time>2000-01-01T03:53:41.000Z</time></trkpt><trkpt lat="43.73299" lon="6.62423"><time>2000-01-01T03:53:51.000Z</time></trkpt><trkpt lat="43.73298" lon="6.62418"><time>2000-01-01T03:54:01.000Z</time></trkpt><trkpt lat="43.73296" lon="6.62414"><time>2000-01-01T03:54:11.000Z</time></trkpt><trkpt lat="43.73295" lon="6.62406"><ele>963</ele><time>2000-01-01T03:54:21.000Z</time></trkpt><trkpt lat="43.73293" lon="6.62402"><time>2000-01-01T03:54:31.000Z</time></trkpt><trkpt lat="43.7329" lon="6.62397"><time>2000-01-01T03:54:41.000Z</time></trkpt><trkpt lat="43.73289" lon="6.62393"><time>2000-01-01T03:54:51.000Z</time></trkpt><trkpt lat="43.73285" lon="6.62389"><time>2000-01-01T03:55:01.000Z</time></trkpt><trkpt lat="43.73283" lon="6.62385"><ele>963</ele><time>2000-01-01T03:55:11.000Z</time></trkpt><trkpt lat="43.73282" lon="6.6238"><time>2000-01-01T03:55:21.000Z</time></trkpt><trkpt lat="43.73281" lon="6.62378"><time>2000-01-01T03:55:31.000Z</time></trkpt><trkpt lat="43.73279" lon="6.62373"><time>2000-01-01T03:55:41.000Z</time></trkpt><trkpt lat="43.73277" lon="6.62369"><time>2000-01-01T03:55:51.000Z</time></trkpt><trkpt lat="43.73274" lon="6.62367"><time>2000-01-01T03:56:01.000Z</time></trkpt><trkpt lat="43.73273" lon="6.62362"><ele>958</ele><time>2000-01-01T03:56:11.000Z</time></trkpt><trkpt lat="43.73269" lon="6.62352"><time>2000-01-01T03:56:21.000Z</time></trkpt><trkpt lat="43.73267" lon="6.62345"><time>2000-01-01T03:56:31.000Z</time></trkpt><trkpt lat="43.73266" lon="6.6234"><time>2000-01-01T03:56:41.000Z</time></trkpt><trkpt lat="43.73264" lon="6.62336"><ele>948</ele><time>2000-01-01T03:56:51.000Z</time></trkpt><trkpt lat="43.7326" lon="6.62329"><time>2000-01-01T03:57:01.000Z</time></trkpt><trkpt lat="43.73258" lon="6.62324"><time>2000-01-01T03:57:11.000Z</time></trkpt><trkpt lat="43.73255" lon="6.62319"><time>2000-01-01T03:57:21.000Z</time></trkpt><trkpt lat="43.73246" lon="6.62307"><ele>948</ele><time>2000-01-01T03:57:31.000Z</time></trkpt><trkpt lat="43.7324" lon="6.62299"><time>2000-01-01T03:57:41.000Z</time></trkpt><trkpt lat="43.73234" lon="6.62291"><time>2000-01-01T03:57:51.000Z</time></trkpt><trkpt lat="43.7323" lon="6.62287"><ele>951</ele><time>2000-01-01T03:58:01.000Z</time></trkpt><trkpt lat="43.73229" lon="6.62283"><time>2000-01-01T03:58:11.000Z</time></trkpt><trkpt lat="43.73227" lon="6.62279"><time>2000-01-01T03:58:21.000Z</time></trkpt><trkpt lat="43.73223" lon="6.62273"><time>2000-01-01T03:58:31.000Z</time></trkpt><trkpt lat="43.73222" lon="6.62269"><time>2000-01-01T03:58:41.000Z</time></trkpt><trkpt lat="43.73222" lon="6.62266"><time>2000-01-01T03:58:51.000Z</time></trkpt><trkpt lat="43.7322" lon="6.62264"><ele>956</ele><time>2000-01-01T03:59:01.000Z</time></trkpt><trkpt lat="43.7322" lon="6.62255"><time>2000-01-01T03:59:11.000Z</time></trkpt><trkpt lat="43.73217" lon="6.62248"><time>2000-01-01T03:59:21.000Z</time></trkpt><trkpt lat="43.73214" lon="6.62241"><time>2000-01-01T03:59:31.000Z</time></trkpt><trkpt lat="43.73212" lon="6.62235"><ele>957</ele><time>2000-01-01T03:59:41.000Z</time></trkpt><trkpt lat="43.73202" lon="6.62236"><time>2000-01-01T03:59:51.000Z</time></trkpt><trkpt lat="43.73191" lon="6.6223"><ele>956</ele><time>2000-01-01T04:00:01.000Z</time></trkpt><trkpt lat="43.73176" lon="6.62217"><time>2000-01-01T04:00:11.000Z</time></trkpt><trkpt lat="43.73164" lon="6.62202"><ele>956</ele><time>2000-01-01T04:00:21.000Z</time></trkpt><trkpt lat="43.73159" lon="6.6219"><time>2000-01-01T04:00:31.000Z</time></trkpt><trkpt lat="43.73156" lon="6.62183"><time>2000-01-01T04:00:41.000Z</time></trkpt><trkpt lat="43.73157" lon="6.62173"><ele>957</ele><time>2000-01-01T04:00:51.000Z</time></trkpt><trkpt lat="43.73158" lon="6.62165"><time>2000-01-01T04:01:01.000Z</time></trkpt><trkpt lat="43.73149" lon="6.62157"><time>2000-01-01T04:01:11.000Z</time></trkpt><trkpt lat="43.73136" lon="6.62145"><ele>961</ele><time>2000-01-01T04:01:21.000Z</time></trkpt><trkpt lat="43.73117" lon="6.62126"><ele>963</ele><time>2000-01-01T04:01:31.000Z</time></trkpt><trkpt lat="43.73109" lon="6.6212"><time>2000-01-01T04:01:41.000Z</time></trkpt><trkpt lat="43.73115" lon="6.62107"><ele>963</ele><time>2000-01-01T04:01:51.000Z</time></trkpt><trkpt lat="43.7312" lon="6.62093"><time>2000-01-01T04:02:01.000Z</time></trkpt><trkpt lat="43.73124" lon="6.62076"><ele>967</ele><time>2000-01-01T04:02:11.000Z</time></trkpt><trkpt lat="43.73122" lon="6.62067"><time>2000-01-01T04:02:21.000Z</time></trkpt><trkpt lat="43.73119" lon="6.62059"><time>2000-01-01T04:02:31.000Z</time></trkpt><trkpt lat="43.73117" lon="6.6205"><ele>966</ele><time>2000-01-01T04:02:41.000Z</time></trkpt><trkpt lat="43.73121" lon="6.62043"><time>2000-01-01T04:02:51.000Z</time></trkpt><trkpt lat="43.73123" lon="6.62037"><time>2000-01-01T04:03:01.000Z</time></trkpt><trkpt lat="43.73123" lon="6.62033"><time>2000-01-01T04:03:11.000Z</time></trkpt><trkpt lat="43.73111" lon="6.62015"><ele>966</ele><time>2000-01-01T04:03:21.000Z</time></trkpt><trkpt lat="43.73144" lon="6.61975"><ele>966</ele><time>2000-01-01T04:03:31.000Z</time></trkpt><trkpt lat="43.7316" lon="6.62002"><ele>969</ele><time>2000-01-01T04:03:41.000Z</time></trkpt><trkpt lat="43.73189" lon="6.62051"><ele>971</ele><time>2000-01-01T04:03:51.000Z</time></trkpt><trkpt lat="43.73159" lon="6.62092"><ele>972</ele><time>2000-01-01T04:04:01.000Z</time></trkpt><trkpt lat="43.73145" lon="6.62066"><ele>972</ele><time>2000-01-01T04:04:11.000Z</time></trkpt><trkpt lat="43.73131" lon="6.62044"><ele>972</ele><time>2000-01-01T04:04:21.000Z</time></trkpt><trkpt lat="43.73129" lon="6.62033"><time>2000-01-01T04:04:31.000Z</time></trkpt><trkpt lat="43.73128" lon="6.62032"><ele>970</ele><time>2000-01-01T04:04:41.000Z</time></trkpt></trkseg></trk></gpx>